<?xml version="1.0" encoding="UTF-8" standalone="no" ?>
<gpx xmlns="http://www.topografix.com/GPX/1/1" xmlns:xsi="http://www.w3.org/2001/XMLSchema-instance" xsi:schemaLocation="http://www.topografix.com/GPX/1/1 http://www.topografix.com/GPX/1/1/gpx.xsd" version="1.1" creator="VisuGPX - https://www.visugpx.com">
  <metadata>
    <name>Étang du Roi</name>
    <desc><![CDATA[Petit parcours praticable même en temps de pluie. Chemins pas trop gadoueux, un peu de route et du sable...]]></desc>
  </metadata>
  <trk>
    <name><![CDATA[Untitled]]></name>
    <trkseg>
      <trkpt lat="48.70717" lon="1.75486">
        <ele>172.19999694824</ele>
        <time>2014-11-28T11:02:56.000Z</time>
      </trkpt>
      <trkpt lat="48.70713" lon="1.75487">
        <ele>172.39999389648</ele>
        <time>2014-11-28T11:02:57.000Z</time>
      </trkpt>
      <trkpt lat="48.70704" lon="1.75484">
        <ele>172.39999389648</ele>
        <time>2014-11-28T11:03:04.000Z</time>
      </trkpt>
      <trkpt lat="48.707" lon="1.75496">
        <ele>172.60000610352</ele>
        <time>2014-11-28T11:03:09.000Z</time>
      </trkpt>
      <trkpt lat="48.70694" lon="1.75511">
        <ele>173.19999694824</ele>
        <time>2014-11-28T11:03:15.000Z</time>
      </trkpt>
      <trkpt lat="48.7069" lon="1.75523">
        <ele>173.80000305176</ele>
        <time>2014-11-28T11:03:20.000Z</time>
      </trkpt>
      <trkpt lat="48.70685" lon="1.75535">
        <ele>174.19999694824</ele>
        <time>2014-11-28T11:03:29.000Z</time>
      </trkpt>
      <trkpt lat="48.70683" lon="1.75546">
        <ele>174.39999389648</ele>
        <time>2014-11-28T11:03:34.000Z</time>
      </trkpt>
      <trkpt lat="48.70677" lon="1.75556">
        <ele>174.80000305176</ele>
        <time>2014-11-28T11:03:41.000Z</time>
      </trkpt>
      <trkpt lat="48.70671" lon="1.75569">
        <ele>176.39999389648</ele>
        <time>2014-11-28T11:03:49.000Z</time>
      </trkpt>
      <trkpt lat="48.70666" lon="1.75578">
        <ele>177</ele>
        <time>2014-11-28T11:03:55.000Z</time>
      </trkpt>
      <trkpt lat="48.70658" lon="1.75592">
        <ele>177.80000305176</ele>
        <time>2014-11-28T11:04:04.000Z</time>
      </trkpt>
      <trkpt lat="48.70653" lon="1.75603">
        <ele>178.19999694824</ele>
        <time>2014-11-28T11:04:11.000Z</time>
      </trkpt>
      <trkpt lat="48.70648" lon="1.75615">
        <ele>178.60000610352</ele>
        <time>2014-11-28T11:04:18.000Z</time>
      </trkpt>
      <trkpt lat="48.70644" lon="1.75628">
        <ele>179.39999389648</ele>
        <time>2014-11-28T11:04:25.000Z</time>
      </trkpt>
      <trkpt lat="48.70641" lon="1.75638">
        <ele>180</ele>
        <time>2014-11-28T11:04:31.000Z</time>
      </trkpt>
      <trkpt lat="48.7064" lon="1.75645">
        <ele>180.39999389648</ele>
        <time>2014-11-28T11:04:34.000Z</time>
      </trkpt>
      <trkpt lat="48.70636" lon="1.75652">
        <ele>181</ele>
        <time>2014-11-28T11:04:41.000Z</time>
      </trkpt>
      <trkpt lat="48.70634" lon="1.75651">
        <ele>181.19999694824</ele>
        <time>2014-11-28T11:04:55.000Z</time>
      </trkpt>
      <trkpt lat="48.70634" lon="1.7565">
        <ele>181.19999694824</ele>
        <time>2014-11-28T11:04:57.000Z</time>
      </trkpt>
      <trkpt lat="48.70637" lon="1.75655">
        <ele>181</ele>
        <time>2014-11-28T11:05:26.000Z</time>
      </trkpt>
      <trkpt lat="48.70637" lon="1.75655">
        <ele>181</ele>
        <time>2014-11-28T11:05:27.000Z</time>
      </trkpt>
      <trkpt lat="48.70625" lon="1.75645">
        <ele>182.19999694824</ele>
        <time>2014-11-28T11:05:46.000Z</time>
      </trkpt>
      <trkpt lat="48.7062" lon="1.75638">
        <ele>182.60000610352</ele>
        <time>2014-11-28T11:05:51.000Z</time>
      </trkpt>
      <trkpt lat="48.70613" lon="1.75631">
        <ele>183.19999694824</ele>
        <time>2014-11-28T11:05:59.000Z</time>
      </trkpt>
      <trkpt lat="48.70609" lon="1.75629">
        <ele>183.80000305176</ele>
        <time>2014-11-28T11:06:03.000Z</time>
      </trkpt>
      <trkpt lat="48.70602" lon="1.75618">
        <ele>184.19999694824</ele>
        <time>2014-11-28T11:06:10.000Z</time>
      </trkpt>
      <trkpt lat="48.70595" lon="1.75611">
        <ele>184.19999694824</ele>
        <time>2014-11-28T11:06:17.000Z</time>
      </trkpt>
      <trkpt lat="48.70589" lon="1.75607">
        <ele>184.19999694824</ele>
        <time>2014-11-28T11:06:23.000Z</time>
      </trkpt>
      <trkpt lat="48.70581" lon="1.756">
        <ele>184.19999694824</ele>
        <time>2014-11-28T11:06:31.000Z</time>
      </trkpt>
      <trkpt lat="48.7058" lon="1.75597">
        <ele>184.19999694824</ele>
        <time>2014-11-28T11:06:33.000Z</time>
      </trkpt>
      <trkpt lat="48.70572" lon="1.75594">
        <ele>184.19999694824</ele>
        <time>2014-11-28T11:06:40.000Z</time>
      </trkpt>
      <trkpt lat="48.70566" lon="1.7559">
        <ele>184.39999389648</ele>
        <time>2014-11-28T11:06:45.000Z</time>
      </trkpt>
      <trkpt lat="48.7056" lon="1.75583">
        <ele>184.39999389648</ele>
        <time>2014-11-28T11:06:53.000Z</time>
      </trkpt>
      <trkpt lat="48.70553" lon="1.75576">
        <ele>184.39999389648</ele>
        <time>2014-11-28T11:07:00.000Z</time>
      </trkpt>
      <trkpt lat="48.70549" lon="1.75569">
        <ele>184.19999694824</ele>
        <time>2014-11-28T11:07:05.000Z</time>
      </trkpt>
      <trkpt lat="48.7055" lon="1.75559">
        <ele>183.80000305176</ele>
        <time>2014-11-28T11:07:13.000Z</time>
      </trkpt>
      <trkpt lat="48.7054" lon="1.75548">
        <ele>183.39999389648</ele>
        <time>2014-11-28T11:07:30.000Z</time>
      </trkpt>
      <trkpt lat="48.70533" lon="1.75543">
        <ele>183.39999389648</ele>
        <time>2014-11-28T11:07:36.000Z</time>
      </trkpt>
      <trkpt lat="48.70527" lon="1.75536">
        <ele>183.19999694824</ele>
        <time>2014-11-28T11:07:42.000Z</time>
      </trkpt>
      <trkpt lat="48.70522" lon="1.7553">
        <ele>183</ele>
        <time>2014-11-28T11:07:48.000Z</time>
      </trkpt>
      <trkpt lat="48.70521" lon="1.7553">
        <ele>183</ele>
        <time>2014-11-28T11:07:49.000Z</time>
      </trkpt>
      <trkpt lat="48.70516" lon="1.75526">
        <ele>183</ele>
        <time>2014-11-28T11:07:54.000Z</time>
      </trkpt>
      <trkpt lat="48.70506" lon="1.75524">
        <ele>183.19999694824</ele>
        <time>2014-11-28T11:08:02.000Z</time>
      </trkpt>
      <trkpt lat="48.70502" lon="1.75523">
        <ele>183.39999389648</ele>
        <time>2014-11-28T11:08:06.000Z</time>
      </trkpt>
      <trkpt lat="48.705" lon="1.75521">
        <ele>183.39999389648</ele>
        <time>2014-11-28T11:08:08.000Z</time>
      </trkpt>
      <trkpt lat="48.70496" lon="1.75516">
        <ele>183.19999694824</ele>
        <time>2014-11-28T11:08:12.000Z</time>
      </trkpt>
      <trkpt lat="48.70495" lon="1.7551">
        <ele>183</ele>
        <time>2014-11-28T11:08:17.000Z</time>
      </trkpt>
      <trkpt lat="48.70495" lon="1.75509">
        <ele>182.80000305176</ele>
        <time>2014-11-28T11:08:18.000Z</time>
      </trkpt>
      <trkpt lat="48.70494" lon="1.75506">
        <ele>182.80000305176</ele>
        <time>2014-11-28T11:08:23.000Z</time>
      </trkpt>
      <trkpt lat="48.70495" lon="1.75504">
        <ele>182.60000610352</ele>
        <time>2014-11-28T11:08:26.000Z</time>
      </trkpt>
      <trkpt lat="48.7049" lon="1.75495">
        <ele>182.39999389648</ele>
        <time>2014-11-28T11:08:32.000Z</time>
      </trkpt>
      <trkpt lat="48.70491" lon="1.75497">
        <ele>182.39999389648</ele>
        <time>2014-11-28T11:08:37.000Z</time>
      </trkpt>
      <trkpt lat="48.70489" lon="1.75492">
        <ele>182.39999389648</ele>
        <time>2014-11-28T11:08:42.000Z</time>
      </trkpt>
      <trkpt lat="48.70487" lon="1.75488">
        <ele>182.19999694824</ele>
        <time>2014-11-28T11:08:47.000Z</time>
      </trkpt>
      <trkpt lat="48.70484" lon="1.75485">
        <ele>182.19999694824</ele>
        <time>2014-11-28T11:08:50.000Z</time>
      </trkpt>
      <trkpt lat="48.70477" lon="1.75476">
        <ele>182.19999694824</ele>
        <time>2014-11-28T11:08:58.000Z</time>
      </trkpt>
      <trkpt lat="48.70471" lon="1.75474">
        <ele>182.39999389648</ele>
        <time>2014-11-28T11:09:04.000Z</time>
      </trkpt>
      <trkpt lat="48.70467" lon="1.75469">
        <ele>182.39999389648</ele>
        <time>2014-11-28T11:09:10.000Z</time>
      </trkpt>
      <trkpt lat="48.70463" lon="1.75465">
        <ele>182.39999389648</ele>
        <time>2014-11-28T11:09:15.000Z</time>
      </trkpt>
      <trkpt lat="48.70466" lon="1.75465">
        <ele>182.39999389648</ele>
        <time>2014-11-28T11:09:19.000Z</time>
      </trkpt>
      <trkpt lat="48.70462" lon="1.75461">
        <ele>182.39999389648</ele>
        <time>2014-11-28T11:09:26.000Z</time>
      </trkpt>
      <trkpt lat="48.7046" lon="1.75461">
        <ele>182.60000610352</ele>
        <time>2014-11-28T11:09:27.000Z</time>
      </trkpt>
      <trkpt lat="48.70452" lon="1.75454">
        <ele>182.60000610352</ele>
        <time>2014-11-28T11:09:33.000Z</time>
      </trkpt>
      <trkpt lat="48.70445" lon="1.75449">
        <ele>182.80000305176</ele>
        <time>2014-11-28T11:09:39.000Z</time>
      </trkpt>
      <trkpt lat="48.70436" lon="1.75443">
        <ele>183</ele>
        <time>2014-11-28T11:09:47.000Z</time>
      </trkpt>
      <trkpt lat="48.70429" lon="1.7544">
        <ele>182.80000305176</ele>
        <time>2014-11-28T11:09:53.000Z</time>
      </trkpt>
      <trkpt lat="48.70422" lon="1.75437">
        <ele>182.60000610352</ele>
        <time>2014-11-28T11:10:00.000Z</time>
      </trkpt>
      <trkpt lat="48.70415" lon="1.75431">
        <ele>182.39999389648</ele>
        <time>2014-11-28T11:10:06.000Z</time>
      </trkpt>
      <trkpt lat="48.70412" lon="1.75427">
        <ele>182.19999694824</ele>
        <time>2014-11-28T11:10:09.000Z</time>
      </trkpt>
      <trkpt lat="48.70405" lon="1.75421">
        <ele>182</ele>
        <time>2014-11-28T11:10:15.000Z</time>
      </trkpt>
      <trkpt lat="48.704" lon="1.75418">
        <ele>181.80000305176</ele>
        <time>2014-11-28T11:10:20.000Z</time>
      </trkpt>
      <trkpt lat="48.70396" lon="1.75412">
        <ele>181.60000610352</ele>
        <time>2014-11-28T11:10:25.000Z</time>
      </trkpt>
      <trkpt lat="48.70393" lon="1.7541">
        <ele>181.60000610352</ele>
        <time>2014-11-28T11:10:32.000Z</time>
      </trkpt>
      <trkpt lat="48.7039" lon="1.75408">
        <ele>181.60000610352</ele>
        <time>2014-11-28T11:10:37.000Z</time>
      </trkpt>
      <trkpt lat="48.70383" lon="1.75407">
        <ele>181.39999389648</ele>
        <time>2014-11-28T11:10:43.000Z</time>
      </trkpt>
      <trkpt lat="48.70382" lon="1.75407">
        <ele>181.39999389648</ele>
        <time>2014-11-28T11:10:44.000Z</time>
      </trkpt>
      <trkpt lat="48.70373" lon="1.75399">
        <ele>181.19999694824</ele>
        <time>2014-11-28T11:10:53.000Z</time>
      </trkpt>
      <trkpt lat="48.70371" lon="1.75398">
        <ele>181.19999694824</ele>
        <time>2014-11-28T11:10:55.000Z</time>
      </trkpt>
      <trkpt lat="48.7037" lon="1.75397">
        <ele>181.19999694824</ele>
        <time>2014-11-28T11:10:58.000Z</time>
      </trkpt>
      <trkpt lat="48.7036" lon="1.75385">
        <ele>181</ele>
        <time>2014-11-28T11:11:43.000Z</time>
      </trkpt>
      <trkpt lat="48.70353" lon="1.75379">
        <ele>181</ele>
        <time>2014-11-28T11:11:48.000Z</time>
      </trkpt>
      <trkpt lat="48.70352" lon="1.75378">
        <ele>181</ele>
        <time>2014-11-28T11:11:50.000Z</time>
      </trkpt>
      <trkpt lat="48.70347" lon="1.75373">
        <ele>180.80000305176</ele>
        <time>2014-11-28T11:11:56.000Z</time>
      </trkpt>
      <trkpt lat="48.70343" lon="1.75368">
        <ele>180.80000305176</ele>
        <time>2014-11-28T11:12:00.000Z</time>
      </trkpt>
      <trkpt lat="48.70336" lon="1.75363">
        <ele>180.60000610352</ele>
        <time>2014-11-28T11:12:06.000Z</time>
      </trkpt>
      <trkpt lat="48.7033" lon="1.75358">
        <ele>180.39999389648</ele>
        <time>2014-11-28T11:12:12.000Z</time>
      </trkpt>
      <trkpt lat="48.70326" lon="1.75359">
        <ele>180.39999389648</ele>
        <time>2014-11-28T11:12:18.000Z</time>
      </trkpt>
      <trkpt lat="48.70319" lon="1.75353">
        <ele>180.19999694824</ele>
        <time>2014-11-28T11:12:29.000Z</time>
      </trkpt>
      <trkpt lat="48.70317" lon="1.75347">
        <ele>180.19999694824</ele>
        <time>2014-11-28T11:12:32.000Z</time>
      </trkpt>
      <trkpt lat="48.70313" lon="1.75339">
        <ele>180</ele>
        <time>2014-11-28T11:12:39.000Z</time>
      </trkpt>
      <trkpt lat="48.70313" lon="1.75339">
        <ele>180</ele>
        <time>2014-11-28T11:12:40.000Z</time>
      </trkpt>
      <trkpt lat="48.70312" lon="1.75335">
        <ele>180</ele>
        <time>2014-11-28T11:12:43.000Z</time>
      </trkpt>
      <trkpt lat="48.7031" lon="1.75334">
        <ele>180</ele>
        <time>2014-11-28T11:12:47.000Z</time>
      </trkpt>
      <trkpt lat="48.70309" lon="1.75334">
        <ele>180</ele>
        <time>2014-11-28T11:12:49.000Z</time>
      </trkpt>
      <trkpt lat="48.70308" lon="1.75332">
        <ele>180</ele>
        <time>2014-11-28T11:12:58.000Z</time>
      </trkpt>
      <trkpt lat="48.70307" lon="1.75332">
        <ele>179.80000305176</ele>
        <time>2014-11-28T11:13:00.000Z</time>
      </trkpt>
      <trkpt lat="48.70289" lon="1.75297">
        <ele>179.80000305176</ele>
        <time>2014-11-28T11:14:04.000Z</time>
      </trkpt>
      <trkpt lat="48.70281" lon="1.75292">
        <ele>179.60000610352</ele>
        <time>2014-11-28T11:14:10.000Z</time>
      </trkpt>
      <trkpt lat="48.70272" lon="1.75283">
        <ele>179.39999389648</ele>
        <time>2014-11-28T11:14:19.000Z</time>
      </trkpt>
      <trkpt lat="48.70263" lon="1.75274">
        <ele>179.19999694824</ele>
        <time>2014-11-28T11:14:27.000Z</time>
      </trkpt>
      <trkpt lat="48.70256" lon="1.75267">
        <ele>179</ele>
        <time>2014-11-28T11:14:35.000Z</time>
      </trkpt>
      <trkpt lat="48.70247" lon="1.75259">
        <ele>178.60000610352</ele>
        <time>2014-11-28T11:14:43.000Z</time>
      </trkpt>
      <trkpt lat="48.70236" lon="1.75252">
        <ele>178.19999694824</ele>
        <time>2014-11-28T11:14:53.000Z</time>
      </trkpt>
      <trkpt lat="48.70228" lon="1.75246">
        <ele>177.80000305176</ele>
        <time>2014-11-28T11:15:00.000Z</time>
      </trkpt>
      <trkpt lat="48.7022" lon="1.75244">
        <ele>177.60000610352</ele>
        <time>2014-11-28T11:15:06.000Z</time>
      </trkpt>
      <trkpt lat="48.7021" lon="1.75244">
        <ele>177</ele>
        <time>2014-11-28T11:15:13.000Z</time>
      </trkpt>
      <trkpt lat="48.70201" lon="1.75246">
        <ele>176.60000610352</ele>
        <time>2014-11-28T11:15:21.000Z</time>
      </trkpt>
      <trkpt lat="48.70192" lon="1.75251">
        <ele>176.19999694824</ele>
        <time>2014-11-28T11:15:28.000Z</time>
      </trkpt>
      <trkpt lat="48.70177" lon="1.75255">
        <ele>175.80000305176</ele>
        <time>2014-11-28T11:15:39.000Z</time>
      </trkpt>
      <trkpt lat="48.70167" lon="1.7526">
        <ele>175.80000305176</ele>
        <time>2014-11-28T11:15:47.000Z</time>
      </trkpt>
      <trkpt lat="48.70162" lon="1.75269">
        <ele>175.80000305176</ele>
        <time>2014-11-28T11:15:53.000Z</time>
      </trkpt>
      <trkpt lat="48.70161" lon="1.75271">
        <ele>175.60000610352</ele>
        <time>2014-11-28T11:15:54.000Z</time>
      </trkpt>
      <trkpt lat="48.70157" lon="1.75273">
        <ele>175.60000610352</ele>
        <time>2014-11-28T11:16:01.000Z</time>
      </trkpt>
      <trkpt lat="48.70155" lon="1.75274">
        <ele>175.60000610352</ele>
        <time>2014-11-28T11:16:03.000Z</time>
      </trkpt>
      <trkpt lat="48.70144" lon="1.75277">
        <ele>175.39999389648</ele>
        <time>2014-11-28T11:16:11.000Z</time>
      </trkpt>
      <trkpt lat="48.70134" lon="1.75281">
        <ele>175</ele>
        <time>2014-11-28T11:16:18.000Z</time>
      </trkpt>
      <trkpt lat="48.70125" lon="1.75285">
        <ele>174.60000610352</ele>
        <time>2014-11-28T11:16:25.000Z</time>
      </trkpt>
      <trkpt lat="48.70117" lon="1.75289">
        <ele>174.19999694824</ele>
        <time>2014-11-28T11:16:32.000Z</time>
      </trkpt>
      <trkpt lat="48.70106" lon="1.75293">
        <ele>173.80000305176</ele>
        <time>2014-11-28T11:16:40.000Z</time>
      </trkpt>
      <trkpt lat="48.70097" lon="1.75299">
        <ele>173.39999389648</ele>
        <time>2014-11-28T11:16:48.000Z</time>
      </trkpt>
      <trkpt lat="48.70086" lon="1.75303">
        <ele>173.19999694824</ele>
        <time>2014-11-28T11:16:56.000Z</time>
      </trkpt>
      <trkpt lat="48.70075" lon="1.75308">
        <ele>173</ele>
        <time>2014-11-28T11:17:04.000Z</time>
      </trkpt>
      <trkpt lat="48.70063" lon="1.75314">
        <ele>172.60000610352</ele>
        <time>2014-11-28T11:17:13.000Z</time>
      </trkpt>
      <trkpt lat="48.7005" lon="1.75318">
        <ele>172.39999389648</ele>
        <time>2014-11-28T11:17:23.000Z</time>
      </trkpt>
      <trkpt lat="48.70039" lon="1.75323">
        <ele>172</ele>
        <time>2014-11-28T11:17:32.000Z</time>
      </trkpt>
      <trkpt lat="48.70038" lon="1.75324">
        <ele>172</ele>
        <time>2014-11-28T11:17:33.000Z</time>
      </trkpt>
      <trkpt lat="48.70026" lon="1.75329">
        <ele>171.60000610352</ele>
        <time>2014-11-28T11:17:43.000Z</time>
      </trkpt>
      <trkpt lat="48.70017" lon="1.75334">
        <ele>171.39999389648</ele>
        <time>2014-11-28T11:17:50.000Z</time>
      </trkpt>
      <trkpt lat="48.70008" lon="1.75339">
        <ele>171.19999694824</ele>
        <time>2014-11-28T11:17:58.000Z</time>
      </trkpt>
      <trkpt lat="48.70003" lon="1.75342">
        <ele>171.19999694824</ele>
        <time>2014-11-28T11:18:02.000Z</time>
      </trkpt>
      <trkpt lat="48.69999" lon="1.75349">
        <ele>171</ele>
        <time>2014-11-28T11:18:07.000Z</time>
      </trkpt>
      <trkpt lat="48.69988" lon="1.75353">
        <ele>170.80000305176</ele>
        <time>2014-11-28T11:18:16.000Z</time>
      </trkpt>
      <trkpt lat="48.69978" lon="1.75355">
        <ele>170.80000305176</ele>
        <time>2014-11-28T11:18:24.000Z</time>
      </trkpt>
      <trkpt lat="48.69971" lon="1.75357">
        <ele>171</ele>
        <time>2014-11-28T11:18:30.000Z</time>
      </trkpt>
      <trkpt lat="48.6996" lon="1.75361">
        <ele>171.39999389648</ele>
        <time>2014-11-28T11:18:39.000Z</time>
      </trkpt>
      <trkpt lat="48.6995" lon="1.75365">
        <ele>171.80000305176</ele>
        <time>2014-11-28T11:18:48.000Z</time>
      </trkpt>
      <trkpt lat="48.69939" lon="1.75371">
        <ele>172.19999694824</ele>
        <time>2014-11-28T11:18:57.000Z</time>
      </trkpt>
      <trkpt lat="48.69933" lon="1.75376">
        <ele>172.19999694824</ele>
        <time>2014-11-28T11:19:02.000Z</time>
      </trkpt>
      <trkpt lat="48.69923" lon="1.75383">
        <ele>172</ele>
        <time>2014-11-28T11:19:10.000Z</time>
      </trkpt>
      <trkpt lat="48.69914" lon="1.75388">
        <ele>171.80000305176</ele>
        <time>2014-11-28T11:19:17.000Z</time>
      </trkpt>
      <trkpt lat="48.69904" lon="1.75392">
        <ele>171.39999389648</ele>
        <time>2014-11-28T11:19:26.000Z</time>
      </trkpt>
      <trkpt lat="48.69893" lon="1.75398">
        <ele>171</ele>
        <time>2014-11-28T11:19:35.000Z</time>
      </trkpt>
      <trkpt lat="48.69885" lon="1.754">
        <ele>170.80000305176</ele>
        <time>2014-11-28T11:19:42.000Z</time>
      </trkpt>
      <trkpt lat="48.69879" lon="1.75404">
        <ele>170.60000610352</ele>
        <time>2014-11-28T11:19:48.000Z</time>
      </trkpt>
      <trkpt lat="48.69874" lon="1.75407">
        <ele>170.39999389648</ele>
        <time>2014-11-28T11:19:53.000Z</time>
      </trkpt>
      <trkpt lat="48.69865" lon="1.75411">
        <ele>170</ele>
        <time>2014-11-28T11:20:00.000Z</time>
      </trkpt>
      <trkpt lat="48.69857" lon="1.75415">
        <ele>169.80000305176</ele>
        <time>2014-11-28T11:20:05.000Z</time>
      </trkpt>
      <trkpt lat="48.69856" lon="1.75416">
        <ele>169.60000610352</ele>
        <time>2014-11-28T11:20:06.000Z</time>
      </trkpt>
      <trkpt lat="48.69847" lon="1.7542">
        <ele>169.19999694824</ele>
        <time>2014-11-28T11:20:14.000Z</time>
      </trkpt>
      <trkpt lat="48.69833" lon="1.75425">
        <ele>168.60000610352</ele>
        <time>2014-11-28T11:20:24.000Z</time>
      </trkpt>
      <trkpt lat="48.69822" lon="1.75429">
        <ele>168</ele>
        <time>2014-11-28T11:20:32.000Z</time>
      </trkpt>
      <trkpt lat="48.69812" lon="1.75438">
        <ele>167.39999389648</ele>
        <time>2014-11-28T11:20:41.000Z</time>
      </trkpt>
      <trkpt lat="48.69802" lon="1.75443">
        <ele>166.60000610352</ele>
        <time>2014-11-28T11:20:49.000Z</time>
      </trkpt>
      <trkpt lat="48.69793" lon="1.75447">
        <ele>166</ele>
        <time>2014-11-28T11:20:56.000Z</time>
      </trkpt>
      <trkpt lat="48.69785" lon="1.75452">
        <ele>165.39999389648</ele>
        <time>2014-11-28T11:21:03.000Z</time>
      </trkpt>
      <trkpt lat="48.69777" lon="1.75455">
        <ele>164.80000305176</ele>
        <time>2014-11-28T11:21:09.000Z</time>
      </trkpt>
      <trkpt lat="48.69768" lon="1.75455">
        <ele>164.39999389648</ele>
        <time>2014-11-28T11:21:15.000Z</time>
      </trkpt>
      <trkpt lat="48.69763" lon="1.75458">
        <ele>164</ele>
        <time>2014-11-28T11:21:19.000Z</time>
      </trkpt>
      <trkpt lat="48.69753" lon="1.75461">
        <ele>163.39999389648</ele>
        <time>2014-11-28T11:21:26.000Z</time>
      </trkpt>
      <trkpt lat="48.69742" lon="1.75464">
        <ele>162.80000305176</ele>
        <time>2014-11-28T11:21:34.000Z</time>
      </trkpt>
      <trkpt lat="48.6973" lon="1.75469">
        <ele>162</ele>
        <time>2014-11-28T11:21:43.000Z</time>
      </trkpt>
      <trkpt lat="48.69717" lon="1.75476">
        <ele>161</ele>
        <time>2014-11-28T11:21:53.000Z</time>
      </trkpt>
      <trkpt lat="48.69708" lon="1.75481">
        <ele>160.39999389648</ele>
        <time>2014-11-28T11:21:59.000Z</time>
      </trkpt>
      <trkpt lat="48.69694" lon="1.75487">
        <ele>159.39999389648</ele>
        <time>2014-11-28T11:22:10.000Z</time>
      </trkpt>
      <trkpt lat="48.69683" lon="1.75494">
        <ele>158.80000305176</ele>
        <time>2014-11-28T11:22:18.000Z</time>
      </trkpt>
      <trkpt lat="48.69673" lon="1.75499">
        <ele>158.19999694824</ele>
        <time>2014-11-28T11:22:26.000Z</time>
      </trkpt>
      <trkpt lat="48.69661" lon="1.75504">
        <ele>157.60000610352</ele>
        <time>2014-11-28T11:22:35.000Z</time>
      </trkpt>
      <trkpt lat="48.6965" lon="1.75509">
        <ele>157.19999694824</ele>
        <time>2014-11-28T11:22:44.000Z</time>
      </trkpt>
      <trkpt lat="48.69638" lon="1.75515">
        <ele>156.60000610352</ele>
        <time>2014-11-28T11:22:54.000Z</time>
      </trkpt>
      <trkpt lat="48.69629" lon="1.75519">
        <ele>156.39999389648</ele>
        <time>2014-11-28T11:23:01.000Z</time>
      </trkpt>
      <trkpt lat="48.69622" lon="1.75523">
        <ele>156.19999694824</ele>
        <time>2014-11-28T11:23:06.000Z</time>
      </trkpt>
      <trkpt lat="48.69611" lon="1.75529">
        <ele>156</ele>
        <time>2014-11-28T11:23:15.000Z</time>
      </trkpt>
      <trkpt lat="48.69603" lon="1.75532">
        <ele>156</ele>
        <time>2014-11-28T11:23:21.000Z</time>
      </trkpt>
      <trkpt lat="48.69601" lon="1.75533">
        <ele>156</ele>
        <time>2014-11-28T11:23:23.000Z</time>
      </trkpt>
      <trkpt lat="48.69592" lon="1.75538">
        <ele>155.80000305176</ele>
        <time>2014-11-28T11:23:30.000Z</time>
      </trkpt>
      <trkpt lat="48.6958" lon="1.75542">
        <ele>155.39999389648</ele>
        <time>2014-11-28T11:23:39.000Z</time>
      </trkpt>
      <trkpt lat="48.6957" lon="1.75547">
        <ele>155.39999389648</ele>
        <time>2014-11-28T11:23:47.000Z</time>
      </trkpt>
      <trkpt lat="48.69567" lon="1.75544">
        <ele>155.39999389648</ele>
        <time>2014-11-28T11:23:50.000Z</time>
      </trkpt>
      <trkpt lat="48.69563" lon="1.75526">
        <ele>155</ele>
        <time>2014-11-28T11:23:56.000Z</time>
      </trkpt>
      <trkpt lat="48.69553" lon="1.75493">
        <ele>154.80000305176</ele>
        <time>2014-11-28T11:24:03.000Z</time>
      </trkpt>
      <trkpt lat="48.69546" lon="1.75464">
        <ele>154.60000610352</ele>
        <time>2014-11-28T11:24:09.000Z</time>
      </trkpt>
      <trkpt lat="48.69538" lon="1.75435">
        <ele>154.39999389648</ele>
        <time>2014-11-28T11:24:15.000Z</time>
      </trkpt>
      <trkpt lat="48.6953" lon="1.75404">
        <ele>154.39999389648</ele>
        <time>2014-11-28T11:24:21.000Z</time>
      </trkpt>
      <trkpt lat="48.69518" lon="1.75359">
        <ele>155.60000610352</ele>
        <time>2014-11-28T11:24:30.000Z</time>
      </trkpt>
      <trkpt lat="48.69507" lon="1.75319">
        <ele>156.80000305176</ele>
        <time>2014-11-28T11:24:38.000Z</time>
      </trkpt>
      <trkpt lat="48.69499" lon="1.75289">
        <ele>158.19999694824</ele>
        <time>2014-11-28T11:24:44.000Z</time>
      </trkpt>
      <trkpt lat="48.69488" lon="1.75248">
        <ele>160.19999694824</ele>
        <time>2014-11-28T11:24:52.000Z</time>
      </trkpt>
      <trkpt lat="48.69481" lon="1.75225">
        <ele>161.19999694824</ele>
        <time>2014-11-28T11:24:57.000Z</time>
      </trkpt>
      <trkpt lat="48.69475" lon="1.75201">
        <ele>162.60000610352</ele>
        <time>2014-11-28T11:25:02.000Z</time>
      </trkpt>
      <trkpt lat="48.69468" lon="1.75164">
        <ele>164.19999694824</ele>
        <time>2014-11-28T11:25:09.000Z</time>
      </trkpt>
      <trkpt lat="48.69464" lon="1.75145">
        <ele>165</ele>
        <time>2014-11-28T11:25:13.000Z</time>
      </trkpt>
      <trkpt lat="48.69459" lon="1.7512">
        <ele>166</ele>
        <time>2014-11-28T11:25:18.000Z</time>
      </trkpt>
      <trkpt lat="48.69451" lon="1.75096">
        <ele>167</ele>
        <time>2014-11-28T11:25:24.000Z</time>
      </trkpt>
      <trkpt lat="48.69446" lon="1.75078">
        <ele>167.60000610352</ele>
        <time>2014-11-28T11:25:32.000Z</time>
      </trkpt>
      <trkpt lat="48.69443" lon="1.75064">
        <ele>167.80000305176</ele>
        <time>2014-11-28T11:25:39.000Z</time>
      </trkpt>
      <trkpt lat="48.69439" lon="1.75053">
        <ele>168</ele>
        <time>2014-11-28T11:25:45.000Z</time>
      </trkpt>
      <trkpt lat="48.69436" lon="1.75037">
        <ele>168</ele>
        <time>2014-11-28T11:25:54.000Z</time>
      </trkpt>
      <trkpt lat="48.69436" lon="1.75035">
        <ele>168</ele>
        <time>2014-11-28T11:25:55.000Z</time>
      </trkpt>
      <trkpt lat="48.69435" lon="1.75027">
        <ele>168</ele>
        <time>2014-11-28T11:25:59.000Z</time>
      </trkpt>
      <trkpt lat="48.69429" lon="1.75007">
        <ele>167.80000305176</ele>
        <time>2014-11-28T11:26:10.000Z</time>
      </trkpt>
      <trkpt lat="48.69426" lon="1.7499">
        <ele>167.60000610352</ele>
        <time>2014-11-28T11:26:19.000Z</time>
      </trkpt>
      <trkpt lat="48.69425" lon="1.74981">
        <ele>167.19999694824</ele>
        <time>2014-11-28T11:26:24.000Z</time>
      </trkpt>
      <trkpt lat="48.6942" lon="1.74969">
        <ele>166.60000610352</ele>
        <time>2014-11-28T11:26:33.000Z</time>
      </trkpt>
      <trkpt lat="48.69418" lon="1.74958">
        <ele>166</ele>
        <time>2014-11-28T11:26:39.000Z</time>
      </trkpt>
      <trkpt lat="48.69414" lon="1.74944">
        <ele>165.39999389648</ele>
        <time>2014-11-28T11:26:46.000Z</time>
      </trkpt>
      <trkpt lat="48.69406" lon="1.74935">
        <ele>164.60000610352</ele>
        <time>2014-11-28T11:26:53.000Z</time>
      </trkpt>
      <trkpt lat="48.694" lon="1.74929">
        <ele>164.19999694824</ele>
        <time>2014-11-28T11:26:59.000Z</time>
      </trkpt>
      <trkpt lat="48.69398" lon="1.7492">
        <ele>163.80000305176</ele>
        <time>2014-11-28T11:27:05.000Z</time>
      </trkpt>
      <trkpt lat="48.69398" lon="1.74917">
        <ele>163.60000610352</ele>
        <time>2014-11-28T11:27:07.000Z</time>
      </trkpt>
      <trkpt lat="48.69398" lon="1.74908">
        <ele>163.19999694824</ele>
        <time>2014-11-28T11:27:13.000Z</time>
      </trkpt>
      <trkpt lat="48.69398" lon="1.74897">
        <ele>163.19999694824</ele>
        <time>2014-11-28T11:27:20.000Z</time>
      </trkpt>
      <trkpt lat="48.69396" lon="1.74884">
        <ele>163.19999694824</ele>
        <time>2014-11-28T11:27:26.000Z</time>
      </trkpt>
      <trkpt lat="48.69395" lon="1.74883">
        <ele>163.19999694824</ele>
        <time>2014-11-28T11:27:27.000Z</time>
      </trkpt>
      <trkpt lat="48.69391" lon="1.74867">
        <ele>163.19999694824</ele>
        <time>2014-11-28T11:27:35.000Z</time>
      </trkpt>
      <trkpt lat="48.69389" lon="1.74852">
        <ele>163.19999694824</ele>
        <time>2014-11-28T11:27:43.000Z</time>
      </trkpt>
      <trkpt lat="48.69385" lon="1.74833">
        <ele>162.39999389648</ele>
        <time>2014-11-28T11:27:52.000Z</time>
      </trkpt>
      <trkpt lat="48.69381" lon="1.74818">
        <ele>162.19999694824</ele>
        <time>2014-11-28T11:28:00.000Z</time>
      </trkpt>
      <trkpt lat="48.69378" lon="1.74802">
        <ele>163.19999694824</ele>
        <time>2014-11-28T11:28:09.000Z</time>
      </trkpt>
      <trkpt lat="48.69376" lon="1.7479">
        <ele>163.80000305176</ele>
        <time>2014-11-28T11:28:16.000Z</time>
      </trkpt>
      <trkpt lat="48.69373" lon="1.74775">
        <ele>164.80000305176</ele>
        <time>2014-11-28T11:28:24.000Z</time>
      </trkpt>
      <trkpt lat="48.69372" lon="1.74771">
        <ele>165</ele>
        <time>2014-11-28T11:28:27.000Z</time>
      </trkpt>
      <trkpt lat="48.69369" lon="1.74755">
        <ele>166</ele>
        <time>2014-11-28T11:28:35.000Z</time>
      </trkpt>
      <trkpt lat="48.69365" lon="1.7474">
        <ele>166.60000610352</ele>
        <time>2014-11-28T11:28:44.000Z</time>
      </trkpt>
      <trkpt lat="48.69361" lon="1.74729">
        <ele>166.80000305176</ele>
        <time>2014-11-28T11:28:50.000Z</time>
      </trkpt>
      <trkpt lat="48.69356" lon="1.74715">
        <ele>166.80000305176</ele>
        <time>2014-11-28T11:28:58.000Z</time>
      </trkpt>
      <trkpt lat="48.69351" lon="1.74703">
        <ele>167</ele>
        <time>2014-11-28T11:29:05.000Z</time>
      </trkpt>
      <trkpt lat="48.69345" lon="1.74686">
        <ele>167</ele>
        <time>2014-11-28T11:29:15.000Z</time>
      </trkpt>
      <trkpt lat="48.69341" lon="1.74668">
        <ele>167.19999694824</ele>
        <time>2014-11-28T11:29:26.000Z</time>
      </trkpt>
      <trkpt lat="48.69337" lon="1.74652">
        <ele>167.19999694824</ele>
        <time>2014-11-28T11:29:35.000Z</time>
      </trkpt>
      <trkpt lat="48.69327" lon="1.74626">
        <ele>167.60000610352</ele>
        <time>2014-11-28T11:29:46.000Z</time>
      </trkpt>
      <trkpt lat="48.69322" lon="1.74612">
        <ele>167.80000305176</ele>
        <time>2014-11-28T11:29:52.000Z</time>
      </trkpt>
      <trkpt lat="48.69317" lon="1.74594">
        <ele>168.19999694824</ele>
        <time>2014-11-28T11:30:02.000Z</time>
      </trkpt>
      <trkpt lat="48.69315" lon="1.74577">
        <ele>168.39999389648</ele>
        <time>2014-11-28T11:30:11.000Z</time>
      </trkpt>
      <trkpt lat="48.69309" lon="1.74559">
        <ele>168.60000610352</ele>
        <time>2014-11-28T11:30:20.000Z</time>
      </trkpt>
      <trkpt lat="48.69306" lon="1.74545">
        <ele>168.60000610352</ele>
        <time>2014-11-28T11:30:27.000Z</time>
      </trkpt>
      <trkpt lat="48.69303" lon="1.74535">
        <ele>168.60000610352</ele>
        <time>2014-11-28T11:30:33.000Z</time>
      </trkpt>
      <trkpt lat="48.69302" lon="1.74528">
        <ele>168.60000610352</ele>
        <time>2014-11-28T11:30:37.000Z</time>
      </trkpt>
      <trkpt lat="48.69298" lon="1.74518">
        <ele>168.60000610352</ele>
        <time>2014-11-28T11:30:43.000Z</time>
      </trkpt>
      <trkpt lat="48.69297" lon="1.74508">
        <ele>168.60000610352</ele>
        <time>2014-11-28T11:30:48.000Z</time>
      </trkpt>
      <trkpt lat="48.69296" lon="1.74496">
        <ele>168.39999389648</ele>
        <time>2014-11-28T11:30:55.000Z</time>
      </trkpt>
      <trkpt lat="48.69293" lon="1.74486">
        <ele>168.39999389648</ele>
        <time>2014-11-28T11:31:02.000Z</time>
      </trkpt>
      <trkpt lat="48.6929" lon="1.74473">
        <ele>167.80000305176</ele>
        <time>2014-11-28T11:31:09.000Z</time>
      </trkpt>
      <trkpt lat="48.69286" lon="1.7446">
        <ele>167.39999389648</ele>
        <time>2014-11-28T11:31:15.000Z</time>
      </trkpt>
      <trkpt lat="48.69285" lon="1.74445">
        <ele>166.60000610352</ele>
        <time>2014-11-28T11:31:23.000Z</time>
      </trkpt>
      <trkpt lat="48.6928" lon="1.74423">
        <ele>165.60000610352</ele>
        <time>2014-11-28T11:31:35.000Z</time>
      </trkpt>
      <trkpt lat="48.69274" lon="1.74406">
        <ele>165</ele>
        <time>2014-11-28T11:31:42.000Z</time>
      </trkpt>
      <trkpt lat="48.6927" lon="1.74387">
        <ele>163.60000610352</ele>
        <time>2014-11-28T11:31:52.000Z</time>
      </trkpt>
      <trkpt lat="48.69268" lon="1.74374">
        <ele>162.60000610352</ele>
        <time>2014-11-28T11:31:58.000Z</time>
      </trkpt>
      <trkpt lat="48.69267" lon="1.74362">
        <ele>161.60000610352</ele>
        <time>2014-11-28T11:32:05.000Z</time>
      </trkpt>
      <trkpt lat="48.69267" lon="1.74359">
        <ele>161.39999389648</ele>
        <time>2014-11-28T11:32:07.000Z</time>
      </trkpt>
      <trkpt lat="48.69264" lon="1.74351">
        <ele>160.80000305176</ele>
        <time>2014-11-28T11:32:11.000Z</time>
      </trkpt>
      <trkpt lat="48.6926" lon="1.74334">
        <ele>159.60000610352</ele>
        <time>2014-11-28T11:32:19.000Z</time>
      </trkpt>
      <trkpt lat="48.69254" lon="1.7432">
        <ele>158.80000305176</ele>
        <time>2014-11-28T11:32:26.000Z</time>
      </trkpt>
      <trkpt lat="48.69248" lon="1.74302">
        <ele>158.60000610352</ele>
        <time>2014-11-28T11:32:34.000Z</time>
      </trkpt>
      <trkpt lat="48.69242" lon="1.74289">
        <ele>158.60000610352</ele>
        <time>2014-11-28T11:32:42.000Z</time>
      </trkpt>
      <trkpt lat="48.69236" lon="1.74273">
        <ele>158.39999389648</ele>
        <time>2014-11-28T11:32:49.000Z</time>
      </trkpt>
      <trkpt lat="48.69234" lon="1.74267">
        <ele>158.19999694824</ele>
        <time>2014-11-28T11:32:52.000Z</time>
      </trkpt>
      <trkpt lat="48.69231" lon="1.74254">
        <ele>158</ele>
        <time>2014-11-28T11:32:59.000Z</time>
      </trkpt>
      <trkpt lat="48.69231" lon="1.74245">
        <ele>157.60000610352</ele>
        <time>2014-11-28T11:33:05.000Z</time>
      </trkpt>
      <trkpt lat="48.6923" lon="1.74241">
        <ele>157.60000610352</ele>
        <time>2014-11-28T11:33:07.000Z</time>
      </trkpt>
      <trkpt lat="48.69226" lon="1.74225">
        <ele>157.60000610352</ele>
        <time>2014-11-28T11:33:15.000Z</time>
      </trkpt>
      <trkpt lat="48.69223" lon="1.74213">
        <ele>157.80000305176</ele>
        <time>2014-11-28T11:33:20.000Z</time>
      </trkpt>
      <trkpt lat="48.69223" lon="1.74211">
        <ele>157.80000305176</ele>
        <time>2014-11-28T11:33:21.000Z</time>
      </trkpt>
      <trkpt lat="48.69222" lon="1.74197">
        <ele>157.80000305176</ele>
        <time>2014-11-28T11:33:30.000Z</time>
      </trkpt>
      <trkpt lat="48.69216" lon="1.74181">
        <ele>158.39999389648</ele>
        <time>2014-11-28T11:33:38.000Z</time>
      </trkpt>
      <trkpt lat="48.69211" lon="1.74161">
        <ele>159.80000305176</ele>
        <time>2014-11-28T11:33:48.000Z</time>
      </trkpt>
      <trkpt lat="48.69208" lon="1.7415">
        <ele>160.39999389648</ele>
        <time>2014-11-28T11:33:54.000Z</time>
      </trkpt>
      <trkpt lat="48.69207" lon="1.74142">
        <ele>160.39999389648</ele>
        <time>2014-11-28T11:33:58.000Z</time>
      </trkpt>
      <trkpt lat="48.69205" lon="1.74134">
        <ele>160.39999389648</ele>
        <time>2014-11-28T11:34:02.000Z</time>
      </trkpt>
      <trkpt lat="48.69201" lon="1.74122">
        <ele>160.60000610352</ele>
        <time>2014-11-28T11:34:09.000Z</time>
      </trkpt>
      <trkpt lat="48.69197" lon="1.74107">
        <ele>160.60000610352</ele>
        <time>2014-11-28T11:34:17.000Z</time>
      </trkpt>
      <trkpt lat="48.69192" lon="1.74091">
        <ele>160.80000305176</ele>
        <time>2014-11-28T11:34:25.000Z</time>
      </trkpt>
      <trkpt lat="48.69189" lon="1.74069">
        <ele>161</ele>
        <time>2014-11-28T11:34:36.000Z</time>
      </trkpt>
      <trkpt lat="48.69186" lon="1.74054">
        <ele>161.19999694824</ele>
        <time>2014-11-28T11:34:45.000Z</time>
      </trkpt>
      <trkpt lat="48.69184" lon="1.74048">
        <ele>161.39999389648</ele>
        <time>2014-11-28T11:34:49.000Z</time>
      </trkpt>
      <trkpt lat="48.6918" lon="1.74038">
        <ele>161.80000305176</ele>
        <time>2014-11-28T11:34:53.000Z</time>
      </trkpt>
      <trkpt lat="48.69171" lon="1.74012">
        <ele>162.39999389648</ele>
        <time>2014-11-28T11:35:05.000Z</time>
      </trkpt>
      <trkpt lat="48.69168" lon="1.73998">
        <ele>162.80000305176</ele>
        <time>2014-11-28T11:35:13.000Z</time>
      </trkpt>
      <trkpt lat="48.69169" lon="1.73997">
        <ele>162.80000305176</ele>
        <time>2014-11-28T11:35:14.000Z</time>
      </trkpt>
      <trkpt lat="48.69169" lon="1.73991">
        <ele>162.80000305176</ele>
        <time>2014-11-28T11:35:18.000Z</time>
      </trkpt>
      <trkpt lat="48.69167" lon="1.73976">
        <ele>163</ele>
        <time>2014-11-28T11:35:26.000Z</time>
      </trkpt>
      <trkpt lat="48.69163" lon="1.73964">
        <ele>163.19999694824</ele>
        <time>2014-11-28T11:35:33.000Z</time>
      </trkpt>
      <trkpt lat="48.69158" lon="1.73952">
        <ele>163.80000305176</ele>
        <time>2014-11-28T11:35:40.000Z</time>
      </trkpt>
      <trkpt lat="48.69154" lon="1.73934">
        <ele>164.60000610352</ele>
        <time>2014-11-28T11:35:49.000Z</time>
      </trkpt>
      <trkpt lat="48.69153" lon="1.7392">
        <ele>165.19999694824</ele>
        <time>2014-11-28T11:35:57.000Z</time>
      </trkpt>
      <trkpt lat="48.69153" lon="1.73916">
        <ele>165.39999389648</ele>
        <time>2014-11-28T11:35:59.000Z</time>
      </trkpt>
      <trkpt lat="48.6915" lon="1.73905">
        <ele>166</ele>
        <time>2014-11-28T11:36:05.000Z</time>
      </trkpt>
      <trkpt lat="48.69148" lon="1.73891">
        <ele>167</ele>
        <time>2014-11-28T11:36:13.000Z</time>
      </trkpt>
      <trkpt lat="48.69145" lon="1.73877">
        <ele>168</ele>
        <time>2014-11-28T11:36:22.000Z</time>
      </trkpt>
      <trkpt lat="48.69143" lon="1.73864">
        <ele>168.80000305176</ele>
        <time>2014-11-28T11:36:30.000Z</time>
      </trkpt>
      <trkpt lat="48.6914" lon="1.73851">
        <ele>169.80000305176</ele>
        <time>2014-11-28T11:36:37.000Z</time>
      </trkpt>
      <trkpt lat="48.6914" lon="1.7385">
        <ele>170</ele>
        <time>2014-11-28T11:36:38.000Z</time>
      </trkpt>
      <trkpt lat="48.69137" lon="1.73839">
        <ele>170.60000610352</ele>
        <time>2014-11-28T11:36:44.000Z</time>
      </trkpt>
      <trkpt lat="48.6913" lon="1.73823">
        <ele>171.80000305176</ele>
        <time>2014-11-28T11:36:53.000Z</time>
      </trkpt>
      <trkpt lat="48.69125" lon="1.73809">
        <ele>172.39999389648</ele>
        <time>2014-11-28T11:37:01.000Z</time>
      </trkpt>
      <trkpt lat="48.69118" lon="1.7379">
        <ele>173.19999694824</ele>
        <time>2014-11-28T11:37:11.000Z</time>
      </trkpt>
      <trkpt lat="48.69117" lon="1.73788">
        <ele>173.19999694824</ele>
        <time>2014-11-28T11:37:12.000Z</time>
      </trkpt>
      <trkpt lat="48.69112" lon="1.73771">
        <ele>173.80000305176</ele>
        <time>2014-11-28T11:37:21.000Z</time>
      </trkpt>
      <trkpt lat="48.69107" lon="1.73754">
        <ele>174.39999389648</ele>
        <time>2014-11-28T11:37:30.000Z</time>
      </trkpt>
      <trkpt lat="48.69103" lon="1.73745">
        <ele>174.80000305176</ele>
        <time>2014-11-28T11:37:36.000Z</time>
      </trkpt>
      <trkpt lat="48.69101" lon="1.73742">
        <ele>174.80000305176</ele>
        <time>2014-11-28T11:37:37.000Z</time>
      </trkpt>
      <trkpt lat="48.69099" lon="1.7373">
        <ele>174.80000305176</ele>
        <time>2014-11-28T11:37:44.000Z</time>
      </trkpt>
      <trkpt lat="48.69095" lon="1.73716">
        <ele>174.80000305176</ele>
        <time>2014-11-28T11:37:53.000Z</time>
      </trkpt>
      <trkpt lat="48.69094" lon="1.73709">
        <ele>174.80000305176</ele>
        <time>2014-11-28T11:37:58.000Z</time>
      </trkpt>
      <trkpt lat="48.69092" lon="1.73695">
        <ele>174.80000305176</ele>
        <time>2014-11-28T11:38:06.000Z</time>
      </trkpt>
      <trkpt lat="48.69089" lon="1.73684">
        <ele>174.60000610352</ele>
        <time>2014-11-28T11:38:12.000Z</time>
      </trkpt>
      <trkpt lat="48.69087" lon="1.73667">
        <ele>174.60000610352</ele>
        <time>2014-11-28T11:38:21.000Z</time>
      </trkpt>
      <trkpt lat="48.69083" lon="1.73651">
        <ele>174.39999389648</ele>
        <time>2014-11-28T11:38:30.000Z</time>
      </trkpt>
      <trkpt lat="48.69081" lon="1.7364">
        <ele>174.19999694824</ele>
        <time>2014-11-28T11:38:35.000Z</time>
      </trkpt>
      <trkpt lat="48.69081" lon="1.73638">
        <ele>174</ele>
        <time>2014-11-28T11:38:36.000Z</time>
      </trkpt>
      <trkpt lat="48.69075" lon="1.73623">
        <ele>173.60000610352</ele>
        <time>2014-11-28T11:38:43.000Z</time>
      </trkpt>
      <trkpt lat="48.69072" lon="1.7362">
        <ele>173.60000610352</ele>
        <time>2014-11-28T11:38:44.000Z</time>
      </trkpt>
      <trkpt lat="48.6907" lon="1.73616">
        <ele>173.39999389648</ele>
        <time>2014-11-28T11:38:46.000Z</time>
      </trkpt>
      <trkpt lat="48.69065" lon="1.73612">
        <ele>173.19999694824</ele>
        <time>2014-11-28T11:38:50.000Z</time>
      </trkpt>
      <trkpt lat="48.69056" lon="1.73609">
        <ele>172.80000305176</ele>
        <time>2014-11-28T11:38:57.000Z</time>
      </trkpt>
      <trkpt lat="48.69054" lon="1.73607">
        <ele>172.60000610352</ele>
        <time>2014-11-28T11:38:59.000Z</time>
      </trkpt>
      <trkpt lat="48.6904" lon="1.73606">
        <ele>172.39999389648</ele>
        <time>2014-11-28T11:39:10.000Z</time>
      </trkpt>
      <trkpt lat="48.69033" lon="1.73606">
        <ele>172.19999694824</ele>
        <time>2014-11-28T11:39:15.000Z</time>
      </trkpt>
      <trkpt lat="48.69026" lon="1.73607">
        <ele>172</ele>
        <time>2014-11-28T11:39:20.000Z</time>
      </trkpt>
      <trkpt lat="48.69024" lon="1.73606">
        <ele>172</ele>
        <time>2014-11-28T11:39:22.000Z</time>
      </trkpt>
      <trkpt lat="48.69013" lon="1.73604">
        <ele>171.60000610352</ele>
        <time>2014-11-28T11:39:30.000Z</time>
      </trkpt>
      <trkpt lat="48.69007" lon="1.73603">
        <ele>171.39999389648</ele>
        <time>2014-11-28T11:39:36.000Z</time>
      </trkpt>
      <trkpt lat="48.68996" lon="1.73599">
        <ele>171.19999694824</ele>
        <time>2014-11-28T11:39:45.000Z</time>
      </trkpt>
      <trkpt lat="48.68987" lon="1.73598">
        <ele>170.80000305176</ele>
        <time>2014-11-28T11:39:53.000Z</time>
      </trkpt>
      <trkpt lat="48.68974" lon="1.73596">
        <ele>170.60000610352</ele>
        <time>2014-11-28T11:40:01.000Z</time>
      </trkpt>
      <trkpt lat="48.68964" lon="1.73594">
        <ele>170.19999694824</ele>
        <time>2014-11-28T11:40:08.000Z</time>
      </trkpt>
      <trkpt lat="48.68954" lon="1.73593">
        <ele>170</ele>
        <time>2014-11-28T11:40:15.000Z</time>
      </trkpt>
      <trkpt lat="48.68946" lon="1.73594">
        <ele>169.80000305176</ele>
        <time>2014-11-28T11:40:22.000Z</time>
      </trkpt>
      <trkpt lat="48.68944" lon="1.73594">
        <ele>169.80000305176</ele>
        <time>2014-11-28T11:40:23.000Z</time>
      </trkpt>
      <trkpt lat="48.68933" lon="1.73594">
        <ele>169.60000610352</ele>
        <time>2014-11-28T11:40:31.000Z</time>
      </trkpt>
      <trkpt lat="48.6892" lon="1.73591">
        <ele>169.60000610352</ele>
        <time>2014-11-28T11:40:40.000Z</time>
      </trkpt>
      <trkpt lat="48.68909" lon="1.7359">
        <ele>169.80000305176</ele>
        <time>2014-11-28T11:40:48.000Z</time>
      </trkpt>
      <trkpt lat="48.68898" lon="1.73589">
        <ele>170</ele>
        <time>2014-11-28T11:40:56.000Z</time>
      </trkpt>
      <trkpt lat="48.68883" lon="1.73588">
        <ele>170</ele>
        <time>2014-11-28T11:41:06.000Z</time>
      </trkpt>
      <trkpt lat="48.6887" lon="1.73588">
        <ele>170.19999694824</ele>
        <time>2014-11-28T11:41:15.000Z</time>
      </trkpt>
      <trkpt lat="48.68858" lon="1.73586">
        <ele>170</ele>
        <time>2014-11-28T11:41:24.000Z</time>
      </trkpt>
      <trkpt lat="48.68848" lon="1.73587">
        <ele>170</ele>
        <time>2014-11-28T11:41:32.000Z</time>
      </trkpt>
      <trkpt lat="48.68846" lon="1.73588">
        <ele>170</ele>
        <time>2014-11-28T11:41:34.000Z</time>
      </trkpt>
      <trkpt lat="48.68841" lon="1.73592">
        <ele>170</ele>
        <time>2014-11-28T11:41:39.000Z</time>
      </trkpt>
      <trkpt lat="48.68836" lon="1.73595">
        <ele>170</ele>
        <time>2014-11-28T11:41:44.000Z</time>
      </trkpt>
      <trkpt lat="48.68832" lon="1.73596">
        <ele>170</ele>
        <time>2014-11-28T11:41:47.000Z</time>
      </trkpt>
      <trkpt lat="48.68831" lon="1.73596">
        <ele>170</ele>
        <time>2014-11-28T11:41:51.000Z</time>
      </trkpt>
      <trkpt lat="48.68829" lon="1.73595">
        <ele>170</ele>
        <time>2014-11-28T11:42:02.000Z</time>
      </trkpt>
      <trkpt lat="48.68829" lon="1.73594">
        <ele>170</ele>
        <time>2014-11-28T11:42:03.000Z</time>
      </trkpt>
      <trkpt lat="48.6882" lon="1.73586">
        <ele>170</ele>
        <time>2014-11-28T11:42:18.000Z</time>
      </trkpt>
      <trkpt lat="48.6882" lon="1.73586">
        <ele>170</ele>
        <time>2014-11-28T11:42:21.000Z</time>
      </trkpt>
      <trkpt lat="48.6882" lon="1.73587">
        <ele>170</ele>
        <time>2014-11-28T11:42:26.000Z</time>
      </trkpt>
      <trkpt lat="48.68799" lon="1.73574">
        <ele>170</ele>
        <time>2014-11-28T11:45:24.000Z</time>
      </trkpt>
      <trkpt lat="48.68799" lon="1.73573">
        <ele>170</ele>
        <time>2014-11-28T11:45:25.000Z</time>
      </trkpt>
      <trkpt lat="48.68773" lon="1.73577">
        <ele>170</ele>
        <time>2014-11-28T11:51:27.000Z</time>
      </trkpt>
      <trkpt lat="48.68767" lon="1.73575">
        <ele>169.80000305176</ele>
        <time>2014-11-28T11:51:33.000Z</time>
      </trkpt>
      <trkpt lat="48.68765" lon="1.73575">
        <ele>169.80000305176</ele>
        <time>2014-11-28T11:51:35.000Z</time>
      </trkpt>
      <trkpt lat="48.6876" lon="1.73576">
        <ele>169.60000610352</ele>
        <time>2014-11-28T11:51:40.000Z</time>
      </trkpt>
      <trkpt lat="48.68749" lon="1.73577">
        <ele>169</ele>
        <time>2014-11-28T11:51:48.000Z</time>
      </trkpt>
      <trkpt lat="48.68738" lon="1.73578">
        <ele>168.39999389648</ele>
        <time>2014-11-28T11:51:56.000Z</time>
      </trkpt>
      <trkpt lat="48.68731" lon="1.73576">
        <ele>168.19999694824</ele>
        <time>2014-11-28T11:52:03.000Z</time>
      </trkpt>
      <trkpt lat="48.68726" lon="1.73575">
        <ele>167.80000305176</ele>
        <time>2014-11-28T11:52:08.000Z</time>
      </trkpt>
      <trkpt lat="48.68718" lon="1.73572">
        <ele>167.60000610352</ele>
        <time>2014-11-28T11:52:14.000Z</time>
      </trkpt>
      <trkpt lat="48.68711" lon="1.7357">
        <ele>167.19999694824</ele>
        <time>2014-11-28T11:52:20.000Z</time>
      </trkpt>
      <trkpt lat="48.6871" lon="1.7357">
        <ele>167.19999694824</ele>
        <time>2014-11-28T11:52:21.000Z</time>
      </trkpt>
      <trkpt lat="48.68695" lon="1.73565">
        <ele>166.19999694824</ele>
        <time>2014-11-28T11:52:30.000Z</time>
      </trkpt>
      <trkpt lat="48.68694" lon="1.73566">
        <ele>166.19999694824</ele>
        <time>2014-11-28T11:52:31.000Z</time>
      </trkpt>
      <trkpt lat="48.68685" lon="1.73564">
        <ele>165.80000305176</ele>
        <time>2014-11-28T11:52:37.000Z</time>
      </trkpt>
      <trkpt lat="48.68673" lon="1.73563">
        <ele>165.60000610352</ele>
        <time>2014-11-28T11:52:45.000Z</time>
      </trkpt>
      <trkpt lat="48.68667" lon="1.73562">
        <ele>165.19999694824</ele>
        <time>2014-11-28T11:52:49.000Z</time>
      </trkpt>
      <trkpt lat="48.68659" lon="1.73563">
        <ele>164.80000305176</ele>
        <time>2014-11-28T11:52:55.000Z</time>
      </trkpt>
      <trkpt lat="48.6865" lon="1.73563">
        <ele>164.39999389648</ele>
        <time>2014-11-28T11:53:02.000Z</time>
      </trkpt>
      <trkpt lat="48.68638" lon="1.73562">
        <ele>164</ele>
        <time>2014-11-28T11:53:10.000Z</time>
      </trkpt>
      <trkpt lat="48.68637" lon="1.73561">
        <ele>163.80000305176</ele>
        <time>2014-11-28T11:53:11.000Z</time>
      </trkpt>
      <trkpt lat="48.68629" lon="1.7356">
        <ele>163.39999389648</ele>
        <time>2014-11-28T11:53:18.000Z</time>
      </trkpt>
      <trkpt lat="48.6862" lon="1.73562">
        <ele>163</ele>
        <time>2014-11-28T11:53:25.000Z</time>
      </trkpt>
      <trkpt lat="48.68612" lon="1.73564">
        <ele>162.60000610352</ele>
        <time>2014-11-28T11:53:30.000Z</time>
      </trkpt>
      <trkpt lat="48.68608" lon="1.73578">
        <ele>162.39999389648</ele>
        <time>2014-11-28T11:53:37.000Z</time>
      </trkpt>
      <trkpt lat="48.68608" lon="1.73585">
        <ele>162.39999389648</ele>
        <time>2014-11-28T11:53:40.000Z</time>
      </trkpt>
      <trkpt lat="48.68609" lon="1.73599">
        <ele>162.60000610352</ele>
        <time>2014-11-28T11:53:48.000Z</time>
      </trkpt>
      <trkpt lat="48.68611" lon="1.73615">
        <ele>162.80000305176</ele>
        <time>2014-11-28T11:53:55.000Z</time>
      </trkpt>
      <trkpt lat="48.68613" lon="1.73629">
        <ele>163</ele>
        <time>2014-11-28T11:54:02.000Z</time>
      </trkpt>
      <trkpt lat="48.68616" lon="1.73644">
        <ele>163.19999694824</ele>
        <time>2014-11-28T11:54:10.000Z</time>
      </trkpt>
      <trkpt lat="48.68616" lon="1.73649">
        <ele>163.19999694824</ele>
        <time>2014-11-28T11:54:12.000Z</time>
      </trkpt>
      <trkpt lat="48.68619" lon="1.73656">
        <ele>163.60000610352</ele>
        <time>2014-11-28T11:54:16.000Z</time>
      </trkpt>
      <trkpt lat="48.68621" lon="1.73662">
        <ele>164</ele>
        <time>2014-11-28T11:54:19.000Z</time>
      </trkpt>
      <trkpt lat="48.68624" lon="1.73674">
        <ele>164.60000610352</ele>
        <time>2014-11-28T11:54:26.000Z</time>
      </trkpt>
      <trkpt lat="48.68626" lon="1.73683">
        <ele>165.19999694824</ele>
        <time>2014-11-28T11:54:31.000Z</time>
      </trkpt>
      <trkpt lat="48.68629" lon="1.73692">
        <ele>165.80000305176</ele>
        <time>2014-11-28T11:54:36.000Z</time>
      </trkpt>
      <trkpt lat="48.68631" lon="1.73712">
        <ele>167.19999694824</ele>
        <time>2014-11-28T11:54:45.000Z</time>
      </trkpt>
      <trkpt lat="48.68632" lon="1.73731">
        <ele>168.39999389648</ele>
        <time>2014-11-28T11:54:53.000Z</time>
      </trkpt>
      <trkpt lat="48.68635" lon="1.73748">
        <ele>168.80000305176</ele>
        <time>2014-11-28T11:55:01.000Z</time>
      </trkpt>
      <trkpt lat="48.68636" lon="1.73755">
        <ele>168.80000305176</ele>
        <time>2014-11-28T11:55:04.000Z</time>
      </trkpt>
      <trkpt lat="48.68638" lon="1.73772">
        <ele>168.60000610352</ele>
        <time>2014-11-28T11:55:10.000Z</time>
      </trkpt>
      <trkpt lat="48.6864" lon="1.73786">
        <ele>169</ele>
        <time>2014-11-28T11:55:17.000Z</time>
      </trkpt>
      <trkpt lat="48.68641" lon="1.73796">
        <ele>169</ele>
        <time>2014-11-28T11:55:22.000Z</time>
      </trkpt>
      <trkpt lat="48.68642" lon="1.7381">
        <ele>169.19999694824</ele>
        <time>2014-11-28T11:55:29.000Z</time>
      </trkpt>
      <trkpt lat="48.68643" lon="1.73823">
        <ele>169.39999389648</ele>
        <time>2014-11-28T11:55:35.000Z</time>
      </trkpt>
      <trkpt lat="48.68645" lon="1.73841">
        <ele>169</ele>
        <time>2014-11-28T11:55:44.000Z</time>
      </trkpt>
      <trkpt lat="48.68647" lon="1.73862">
        <ele>168.60000610352</ele>
        <time>2014-11-28T11:55:53.000Z</time>
      </trkpt>
      <trkpt lat="48.68651" lon="1.73883">
        <ele>168.19999694824</ele>
        <time>2014-11-28T11:56:03.000Z</time>
      </trkpt>
      <trkpt lat="48.68653" lon="1.73889">
        <ele>168.19999694824</ele>
        <time>2014-11-28T11:56:07.000Z</time>
      </trkpt>
      <trkpt lat="48.68654" lon="1.73899">
        <ele>168</ele>
        <time>2014-11-28T11:56:12.000Z</time>
      </trkpt>
      <trkpt lat="48.68657" lon="1.73919">
        <ele>167.39999389648</ele>
        <time>2014-11-28T11:56:21.000Z</time>
      </trkpt>
      <trkpt lat="48.68661" lon="1.73939">
        <ele>166.80000305176</ele>
        <time>2014-11-28T11:56:31.000Z</time>
      </trkpt>
      <trkpt lat="48.68662" lon="1.73954">
        <ele>166.39999389648</ele>
        <time>2014-11-28T11:56:38.000Z</time>
      </trkpt>
      <trkpt lat="48.68664" lon="1.73967">
        <ele>166</ele>
        <time>2014-11-28T11:56:45.000Z</time>
      </trkpt>
      <trkpt lat="48.68664" lon="1.73971">
        <ele>166</ele>
        <time>2014-11-28T11:56:47.000Z</time>
      </trkpt>
      <trkpt lat="48.68669" lon="1.73988">
        <ele>166</ele>
        <time>2014-11-28T11:56:55.000Z</time>
      </trkpt>
      <trkpt lat="48.6867" lon="1.73997">
        <ele>165.60000610352</ele>
        <time>2014-11-28T11:57:00.000Z</time>
      </trkpt>
      <trkpt lat="48.68673" lon="1.74019">
        <ele>164.80000305176</ele>
        <time>2014-11-28T11:57:07.000Z</time>
      </trkpt>
      <trkpt lat="48.68676" lon="1.74036">
        <ele>164.19999694824</ele>
        <time>2014-11-28T11:57:16.000Z</time>
      </trkpt>
      <trkpt lat="48.68676" lon="1.74038">
        <ele>164.19999694824</ele>
        <time>2014-11-28T11:57:17.000Z</time>
      </trkpt>
      <trkpt lat="48.68676" lon="1.74054">
        <ele>163.60000610352</ele>
        <time>2014-11-28T11:57:23.000Z</time>
      </trkpt>
      <trkpt lat="48.6868" lon="1.74065">
        <ele>163.19999694824</ele>
        <time>2014-11-28T11:57:28.000Z</time>
      </trkpt>
      <trkpt lat="48.68684" lon="1.74078">
        <ele>162.60000610352</ele>
        <time>2014-11-28T11:57:34.000Z</time>
      </trkpt>
      <trkpt lat="48.68686" lon="1.74097">
        <ele>161.39999389648</ele>
        <time>2014-11-28T11:57:43.000Z</time>
      </trkpt>
      <trkpt lat="48.68688" lon="1.74113">
        <ele>160.39999389648</ele>
        <time>2014-11-28T11:57:50.000Z</time>
      </trkpt>
      <trkpt lat="48.68692" lon="1.74124">
        <ele>159.60000610352</ele>
        <time>2014-11-28T11:57:56.000Z</time>
      </trkpt>
      <trkpt lat="48.68696" lon="1.74137">
        <ele>158.60000610352</ele>
        <time>2014-11-28T11:58:02.000Z</time>
      </trkpt>
      <trkpt lat="48.68698" lon="1.74151">
        <ele>157.60000610352</ele>
        <time>2014-11-28T11:58:09.000Z</time>
      </trkpt>
      <trkpt lat="48.687" lon="1.74169">
        <ele>157.80000305176</ele>
        <time>2014-11-28T11:58:16.000Z</time>
      </trkpt>
      <trkpt lat="48.68701" lon="1.74182">
        <ele>157.60000610352</ele>
        <time>2014-11-28T11:58:22.000Z</time>
      </trkpt>
      <trkpt lat="48.68704" lon="1.74198">
        <ele>157.39999389648</ele>
        <time>2014-11-28T11:58:28.000Z</time>
      </trkpt>
      <trkpt lat="48.68705" lon="1.7421">
        <ele>157.39999389648</ele>
        <time>2014-11-28T11:58:33.000Z</time>
      </trkpt>
      <trkpt lat="48.68703" lon="1.74218">
        <ele>157.19999694824</ele>
        <time>2014-11-28T11:58:37.000Z</time>
      </trkpt>
      <trkpt lat="48.68698" lon="1.74236">
        <ele>157</ele>
        <time>2014-11-28T11:58:46.000Z</time>
      </trkpt>
      <trkpt lat="48.68692" lon="1.74243">
        <ele>157.60000610352</ele>
        <time>2014-11-28T11:58:53.000Z</time>
      </trkpt>
      <trkpt lat="48.68685" lon="1.74245">
        <ele>157.19999694824</ele>
        <time>2014-11-28T11:59:01.000Z</time>
      </trkpt>
      <trkpt lat="48.68679" lon="1.74246">
        <ele>157.19999694824</ele>
        <time>2014-11-28T11:59:06.000Z</time>
      </trkpt>
      <trkpt lat="48.68671" lon="1.74249">
        <ele>157.39999389648</ele>
        <time>2014-11-28T11:59:14.000Z</time>
      </trkpt>
      <trkpt lat="48.6866" lon="1.74255">
        <ele>157.80000305176</ele>
        <time>2014-11-28T11:59:23.000Z</time>
      </trkpt>
      <trkpt lat="48.68648" lon="1.74262">
        <ele>158</ele>
        <time>2014-11-28T11:59:33.000Z</time>
      </trkpt>
      <trkpt lat="48.68636" lon="1.74269">
        <ele>158.39999389648</ele>
        <time>2014-11-28T11:59:43.000Z</time>
      </trkpt>
      <trkpt lat="48.68624" lon="1.74276">
        <ele>157.60000610352</ele>
        <time>2014-11-28T11:59:54.000Z</time>
      </trkpt>
      <trkpt lat="48.68617" lon="1.74283">
        <ele>157</ele>
        <time>2014-11-28T12:00:02.000Z</time>
      </trkpt>
      <trkpt lat="48.68608" lon="1.74292">
        <ele>156.19999694824</ele>
        <time>2014-11-28T12:00:10.000Z</time>
      </trkpt>
      <trkpt lat="48.68596" lon="1.74301">
        <ele>155.60000610352</ele>
        <time>2014-11-28T12:00:17.000Z</time>
      </trkpt>
      <trkpt lat="48.68587" lon="1.74311">
        <ele>155</ele>
        <time>2014-11-28T12:00:24.000Z</time>
      </trkpt>
      <trkpt lat="48.68583" lon="1.74325">
        <ele>154.80000305176</ele>
        <time>2014-11-28T12:00:31.000Z</time>
      </trkpt>
      <trkpt lat="48.68579" lon="1.74339">
        <ele>155</ele>
        <time>2014-11-28T12:00:39.000Z</time>
      </trkpt>
      <trkpt lat="48.68579" lon="1.74362">
        <ele>155.19999694824</ele>
        <time>2014-11-28T12:00:49.000Z</time>
      </trkpt>
      <trkpt lat="48.68578" lon="1.74377">
        <ele>155.39999389648</ele>
        <time>2014-11-28T12:00:57.000Z</time>
      </trkpt>
      <trkpt lat="48.68577" lon="1.7439">
        <ele>154.60000610352</ele>
        <time>2014-11-28T12:01:03.000Z</time>
      </trkpt>
      <trkpt lat="48.68574" lon="1.74404">
        <ele>153.60000610352</ele>
        <time>2014-11-28T12:01:10.000Z</time>
      </trkpt>
      <trkpt lat="48.68568" lon="1.74416">
        <ele>153.80000305176</ele>
        <time>2014-11-28T12:01:18.000Z</time>
      </trkpt>
      <trkpt lat="48.68561" lon="1.74429">
        <ele>154.19999694824</ele>
        <time>2014-11-28T12:01:27.000Z</time>
      </trkpt>
      <trkpt lat="48.68555" lon="1.74439">
        <ele>154.60000610352</ele>
        <time>2014-11-28T12:01:34.000Z</time>
      </trkpt>
      <trkpt lat="48.68548" lon="1.74446">
        <ele>154.39999389648</ele>
        <time>2014-11-28T12:01:41.000Z</time>
      </trkpt>
      <trkpt lat="48.68538" lon="1.74456">
        <ele>154.39999389648</ele>
        <time>2014-11-28T12:01:51.000Z</time>
      </trkpt>
      <trkpt lat="48.68528" lon="1.74463">
        <ele>154</ele>
        <time>2014-11-28T12:02:00.000Z</time>
      </trkpt>
      <trkpt lat="48.6852" lon="1.74467">
        <ele>153.60000610352</ele>
        <time>2014-11-28T12:02:07.000Z</time>
      </trkpt>
      <trkpt lat="48.68514" lon="1.74471">
        <ele>154</ele>
        <time>2014-11-28T12:02:13.000Z</time>
      </trkpt>
      <trkpt lat="48.68507" lon="1.74474">
        <ele>154.60000610352</ele>
        <time>2014-11-28T12:02:19.000Z</time>
      </trkpt>
      <trkpt lat="48.68499" lon="1.7448">
        <ele>154.19999694824</ele>
        <time>2014-11-28T12:02:27.000Z</time>
      </trkpt>
      <trkpt lat="48.68491" lon="1.74487">
        <ele>153.60000610352</ele>
        <time>2014-11-28T12:02:36.000Z</time>
      </trkpt>
      <trkpt lat="48.68484" lon="1.74494">
        <ele>153.80000305176</ele>
        <time>2014-11-28T12:02:43.000Z</time>
      </trkpt>
      <trkpt lat="48.68476" lon="1.745">
        <ele>154</ele>
        <time>2014-11-28T12:02:51.000Z</time>
      </trkpt>
      <trkpt lat="48.68471" lon="1.74503">
        <ele>154.19999694824</ele>
        <time>2014-11-28T12:02:56.000Z</time>
      </trkpt>
      <trkpt lat="48.68465" lon="1.7451">
        <ele>154.60000610352</ele>
        <time>2014-11-28T12:03:02.000Z</time>
      </trkpt>
      <trkpt lat="48.68458" lon="1.74514">
        <ele>154.19999694824</ele>
        <time>2014-11-28T12:03:08.000Z</time>
      </trkpt>
      <trkpt lat="48.68447" lon="1.74519">
        <ele>153.39999389648</ele>
        <time>2014-11-28T12:03:17.000Z</time>
      </trkpt>
      <trkpt lat="48.68438" lon="1.74524">
        <ele>152.39999389648</ele>
        <time>2014-11-28T12:03:23.000Z</time>
      </trkpt>
      <trkpt lat="48.6843" lon="1.74531">
        <ele>153</ele>
        <time>2014-11-28T12:03:31.000Z</time>
      </trkpt>
      <trkpt lat="48.68428" lon="1.74534">
        <ele>153.39999389648</ele>
        <time>2014-11-28T12:03:34.000Z</time>
      </trkpt>
      <trkpt lat="48.68421" lon="1.74539">
        <ele>154.19999694824</ele>
        <time>2014-11-28T12:03:38.000Z</time>
      </trkpt>
      <trkpt lat="48.68409" lon="1.74548">
        <ele>155</ele>
        <time>2014-11-28T12:03:46.000Z</time>
      </trkpt>
      <trkpt lat="48.68402" lon="1.74554">
        <ele>154.80000305176</ele>
        <time>2014-11-28T12:03:52.000Z</time>
      </trkpt>
      <trkpt lat="48.68393" lon="1.74565">
        <ele>154.19999694824</ele>
        <time>2014-11-28T12:04:01.000Z</time>
      </trkpt>
      <trkpt lat="48.68384" lon="1.74581">
        <ele>154.60000610352</ele>
        <time>2014-11-28T12:04:11.000Z</time>
      </trkpt>
      <trkpt lat="48.68377" lon="1.74595">
        <ele>155.39999389648</ele>
        <time>2014-11-28T12:04:20.000Z</time>
      </trkpt>
      <trkpt lat="48.68372" lon="1.74613">
        <ele>154.80000305176</ele>
        <time>2014-11-28T12:04:29.000Z</time>
      </trkpt>
      <trkpt lat="48.68368" lon="1.74629">
        <ele>154.39999389648</ele>
        <time>2014-11-28T12:04:37.000Z</time>
      </trkpt>
      <trkpt lat="48.68363" lon="1.74634">
        <ele>154</ele>
        <time>2014-11-28T12:04:43.000Z</time>
      </trkpt>
      <trkpt lat="48.68362" lon="1.74635">
        <ele>153.80000305176</ele>
        <time>2014-11-28T12:04:44.000Z</time>
      </trkpt>
      <trkpt lat="48.68358" lon="1.74643">
        <ele>153.39999389648</ele>
        <time>2014-11-28T12:04:50.000Z</time>
      </trkpt>
      <trkpt lat="48.68357" lon="1.74645">
        <ele>153.39999389648</ele>
        <time>2014-11-28T12:04:52.000Z</time>
      </trkpt>
      <trkpt lat="48.68353" lon="1.74658">
        <ele>153.19999694824</ele>
        <time>2014-11-28T12:04:58.000Z</time>
      </trkpt>
      <trkpt lat="48.68348" lon="1.74669">
        <ele>153.80000305176</ele>
        <time>2014-11-28T12:05:02.000Z</time>
      </trkpt>
      <trkpt lat="48.68342" lon="1.74686">
        <ele>155</ele>
        <time>2014-11-28T12:05:10.000Z</time>
      </trkpt>
      <trkpt lat="48.6834" lon="1.74694">
        <ele>155.39999389648</ele>
        <time>2014-11-28T12:05:14.000Z</time>
      </trkpt>
      <trkpt lat="48.68336" lon="1.74705">
        <ele>156</ele>
        <time>2014-11-28T12:05:21.000Z</time>
      </trkpt>
      <trkpt lat="48.6833" lon="1.74714">
        <ele>156.80000305176</ele>
        <time>2014-11-28T12:05:30.000Z</time>
      </trkpt>
      <trkpt lat="48.68323" lon="1.74723">
        <ele>156.19999694824</ele>
        <time>2014-11-28T12:05:38.000Z</time>
      </trkpt>
      <trkpt lat="48.68318" lon="1.74733">
        <ele>155.39999389648</ele>
        <time>2014-11-28T12:05:45.000Z</time>
      </trkpt>
      <trkpt lat="48.68312" lon="1.74743">
        <ele>155.19999694824</ele>
        <time>2014-11-28T12:05:52.000Z</time>
      </trkpt>
      <trkpt lat="48.68307" lon="1.74752">
        <ele>155.60000610352</ele>
        <time>2014-11-28T12:05:58.000Z</time>
      </trkpt>
      <trkpt lat="48.68306" lon="1.74753">
        <ele>155.60000610352</ele>
        <time>2014-11-28T12:05:59.000Z</time>
      </trkpt>
      <trkpt lat="48.68301" lon="1.74766">
        <ele>156.19999694824</ele>
        <time>2014-11-28T12:06:09.000Z</time>
      </trkpt>
      <trkpt lat="48.68296" lon="1.74777">
        <ele>155.60000610352</ele>
        <time>2014-11-28T12:06:17.000Z</time>
      </trkpt>
      <trkpt lat="48.68291" lon="1.74791">
        <ele>154.80000305176</ele>
        <time>2014-11-28T12:06:25.000Z</time>
      </trkpt>
      <trkpt lat="48.68289" lon="1.74804">
        <ele>154.19999694824</ele>
        <time>2014-11-28T12:06:31.000Z</time>
      </trkpt>
      <trkpt lat="48.68286" lon="1.74814">
        <ele>153.60000610352</ele>
        <time>2014-11-28T12:06:37.000Z</time>
      </trkpt>
      <trkpt lat="48.68279" lon="1.74827">
        <ele>153.19999694824</ele>
        <time>2014-11-28T12:06:45.000Z</time>
      </trkpt>
      <trkpt lat="48.68274" lon="1.74838">
        <ele>152.60000610352</ele>
        <time>2014-11-28T12:06:52.000Z</time>
      </trkpt>
      <trkpt lat="48.68267" lon="1.7485">
        <ele>152.19999694824</ele>
        <time>2014-11-28T12:07:00.000Z</time>
      </trkpt>
      <trkpt lat="48.68263" lon="1.7486">
        <ele>152.39999389648</ele>
        <time>2014-11-28T12:07:07.000Z</time>
      </trkpt>
      <trkpt lat="48.68258" lon="1.74872">
        <ele>152.60000610352</ele>
        <time>2014-11-28T12:07:14.000Z</time>
      </trkpt>
      <trkpt lat="48.68254" lon="1.74879">
        <ele>153</ele>
        <time>2014-11-28T12:07:20.000Z</time>
      </trkpt>
      <trkpt lat="48.68251" lon="1.74885">
        <ele>153</ele>
        <time>2014-11-28T12:07:24.000Z</time>
      </trkpt>
      <trkpt lat="48.68247" lon="1.74892">
        <ele>152.60000610352</ele>
        <time>2014-11-28T12:07:28.000Z</time>
      </trkpt>
      <trkpt lat="48.6824" lon="1.74901">
        <ele>151.80000305176</ele>
        <time>2014-11-28T12:07:34.000Z</time>
      </trkpt>
      <trkpt lat="48.68236" lon="1.74916">
        <ele>152.39999389648</ele>
        <time>2014-11-28T12:07:41.000Z</time>
      </trkpt>
      <trkpt lat="48.68232" lon="1.7493">
        <ele>153.19999694824</ele>
        <time>2014-11-28T12:07:48.000Z</time>
      </trkpt>
      <trkpt lat="48.68231" lon="1.74946">
        <ele>154</ele>
        <time>2014-11-28T12:07:56.000Z</time>
      </trkpt>
      <trkpt lat="48.68228" lon="1.74963">
        <ele>153.80000305176</ele>
        <time>2014-11-28T12:08:05.000Z</time>
      </trkpt>
      <trkpt lat="48.68224" lon="1.74974">
        <ele>153.19999694824</ele>
        <time>2014-11-28T12:08:13.000Z</time>
      </trkpt>
      <trkpt lat="48.68223" lon="1.74975">
        <ele>153.19999694824</ele>
        <time>2014-11-28T12:08:14.000Z</time>
      </trkpt>
      <trkpt lat="48.68221" lon="1.74981">
        <ele>153</ele>
        <time>2014-11-28T12:08:18.000Z</time>
      </trkpt>
      <trkpt lat="48.68216" lon="1.75004">
        <ele>153.39999389648</ele>
        <time>2014-11-28T12:08:28.000Z</time>
      </trkpt>
      <trkpt lat="48.68208" lon="1.75021">
        <ele>153.39999389648</ele>
        <time>2014-11-28T12:08:36.000Z</time>
      </trkpt>
      <trkpt lat="48.68203" lon="1.75033">
        <ele>152.80000305176</ele>
        <time>2014-11-28T12:08:44.000Z</time>
      </trkpt>
      <trkpt lat="48.68198" lon="1.75049">
        <ele>152.19999694824</ele>
        <time>2014-11-28T12:08:53.000Z</time>
      </trkpt>
      <trkpt lat="48.68193" lon="1.75066">
        <ele>151.80000305176</ele>
        <time>2014-11-28T12:09:02.000Z</time>
      </trkpt>
      <trkpt lat="48.68188" lon="1.75082">
        <ele>151.80000305176</ele>
        <time>2014-11-28T12:09:10.000Z</time>
      </trkpt>
      <trkpt lat="48.68182" lon="1.75095">
        <ele>152.19999694824</ele>
        <time>2014-11-28T12:09:18.000Z</time>
      </trkpt>
      <trkpt lat="48.68175" lon="1.75107">
        <ele>152.39999389648</ele>
        <time>2014-11-28T12:09:26.000Z</time>
      </trkpt>
      <trkpt lat="48.68167" lon="1.75121">
        <ele>152.80000305176</ele>
        <time>2014-11-28T12:09:35.000Z</time>
      </trkpt>
      <trkpt lat="48.6816" lon="1.75132">
        <ele>153</ele>
        <time>2014-11-28T12:09:43.000Z</time>
      </trkpt>
      <trkpt lat="48.68153" lon="1.75142">
        <ele>152.60000610352</ele>
        <time>2014-11-28T12:09:50.000Z</time>
      </trkpt>
      <trkpt lat="48.68144" lon="1.75157">
        <ele>152</ele>
        <time>2014-11-28T12:09:59.000Z</time>
      </trkpt>
      <trkpt lat="48.68134" lon="1.75173">
        <ele>151</ele>
        <time>2014-11-28T12:10:09.000Z</time>
      </trkpt>
      <trkpt lat="48.68126" lon="1.75184">
        <ele>150.39999389648</ele>
        <time>2014-11-28T12:10:17.000Z</time>
      </trkpt>
      <trkpt lat="48.68117" lon="1.75198">
        <ele>150.39999389648</ele>
        <time>2014-11-28T12:10:26.000Z</time>
      </trkpt>
      <trkpt lat="48.68105" lon="1.75214">
        <ele>150.19999694824</ele>
        <time>2014-11-28T12:10:38.000Z</time>
      </trkpt>
      <trkpt lat="48.68098" lon="1.75226">
        <ele>150.60000610352</ele>
        <time>2014-11-28T12:10:46.000Z</time>
      </trkpt>
      <trkpt lat="48.68092" lon="1.75243">
        <ele>150.39999389648</ele>
        <time>2014-11-28T12:10:55.000Z</time>
      </trkpt>
      <trkpt lat="48.68086" lon="1.75262">
        <ele>150.19999694824</ele>
        <time>2014-11-28T12:11:05.000Z</time>
      </trkpt>
      <trkpt lat="48.68083" lon="1.75273">
        <ele>150</ele>
        <time>2014-11-28T12:11:12.000Z</time>
      </trkpt>
      <trkpt lat="48.68075" lon="1.75293">
        <ele>149.60000610352</ele>
        <time>2014-11-28T12:11:22.000Z</time>
      </trkpt>
      <trkpt lat="48.68073" lon="1.75315">
        <ele>149.80000305176</ele>
        <time>2014-11-28T12:11:32.000Z</time>
      </trkpt>
      <trkpt lat="48.68071" lon="1.75333">
        <ele>149.60000610352</ele>
        <time>2014-11-28T12:11:41.000Z</time>
      </trkpt>
      <trkpt lat="48.68068" lon="1.75354">
        <ele>149.39999389648</ele>
        <time>2014-11-28T12:11:51.000Z</time>
      </trkpt>
      <trkpt lat="48.68068" lon="1.75373">
        <ele>149.19999694824</ele>
        <time>2014-11-28T12:12:00.000Z</time>
      </trkpt>
      <trkpt lat="48.68064" lon="1.75397">
        <ele>149</ele>
        <time>2014-11-28T12:12:12.000Z</time>
      </trkpt>
      <trkpt lat="48.6806" lon="1.75426">
        <ele>149</ele>
        <time>2014-11-28T12:12:26.000Z</time>
      </trkpt>
      <trkpt lat="48.68056" lon="1.75447">
        <ele>148.80000305176</ele>
        <time>2014-11-28T12:12:37.000Z</time>
      </trkpt>
      <trkpt lat="48.68051" lon="1.75467">
        <ele>148</ele>
        <time>2014-11-28T12:12:47.000Z</time>
      </trkpt>
      <trkpt lat="48.68048" lon="1.75491">
        <ele>147.39999389648</ele>
        <time>2014-11-28T12:12:58.000Z</time>
      </trkpt>
      <trkpt lat="48.68047" lon="1.75512">
        <ele>147.19999694824</ele>
        <time>2014-11-28T12:13:08.000Z</time>
      </trkpt>
      <trkpt lat="48.68049" lon="1.75517">
        <ele>147.39999389648</ele>
        <time>2014-11-28T12:13:12.000Z</time>
      </trkpt>
      <trkpt lat="48.6805" lon="1.75518">
        <ele>147.39999389648</ele>
        <time>2014-11-28T12:13:15.000Z</time>
      </trkpt>
      <trkpt lat="48.68056" lon="1.75522">
        <ele>147.80000305176</ele>
        <time>2014-11-28T12:13:25.000Z</time>
      </trkpt>
      <trkpt lat="48.68065" lon="1.75529">
        <ele>148.19999694824</ele>
        <time>2014-11-28T12:13:32.000Z</time>
      </trkpt>
      <trkpt lat="48.68077" lon="1.75535">
        <ele>148.80000305176</ele>
        <time>2014-11-28T12:13:41.000Z</time>
      </trkpt>
      <trkpt lat="48.68085" lon="1.75541">
        <ele>149.19999694824</ele>
        <time>2014-11-28T12:13:48.000Z</time>
      </trkpt>
      <trkpt lat="48.68096" lon="1.7555">
        <ele>149.60000610352</ele>
        <time>2014-11-28T12:13:57.000Z</time>
      </trkpt>
      <trkpt lat="48.68107" lon="1.75562">
        <ele>150</ele>
        <time>2014-11-28T12:14:07.000Z</time>
      </trkpt>
      <trkpt lat="48.68119" lon="1.75571">
        <ele>150.39999389648</ele>
        <time>2014-11-28T12:14:17.000Z</time>
      </trkpt>
      <trkpt lat="48.68127" lon="1.75579">
        <ele>150.60000610352</ele>
        <time>2014-11-28T12:14:24.000Z</time>
      </trkpt>
      <trkpt lat="48.68145" lon="1.7559">
        <ele>151</ele>
        <time>2014-11-28T12:14:37.000Z</time>
      </trkpt>
      <trkpt lat="48.68158" lon="1.75598">
        <ele>151.39999389648</ele>
        <time>2014-11-28T12:14:47.000Z</time>
      </trkpt>
      <trkpt lat="48.68175" lon="1.75606">
        <ele>151.80000305176</ele>
        <time>2014-11-28T12:14:59.000Z</time>
      </trkpt>
      <trkpt lat="48.68189" lon="1.75611">
        <ele>152</ele>
        <time>2014-11-28T12:15:09.000Z</time>
      </trkpt>
      <trkpt lat="48.68203" lon="1.75616">
        <ele>152.19999694824</ele>
        <time>2014-11-28T12:15:19.000Z</time>
      </trkpt>
      <trkpt lat="48.6822" lon="1.75622">
        <ele>152.39999389648</ele>
        <time>2014-11-28T12:15:31.000Z</time>
      </trkpt>
      <trkpt lat="48.68229" lon="1.75626">
        <ele>152.60000610352</ele>
        <time>2014-11-28T12:15:39.000Z</time>
      </trkpt>
      <trkpt lat="48.6824" lon="1.7563">
        <ele>152.60000610352</ele>
        <time>2014-11-28T12:15:48.000Z</time>
      </trkpt>
      <trkpt lat="48.68251" lon="1.75634">
        <ele>152.80000305176</ele>
        <time>2014-11-28T12:15:56.000Z</time>
      </trkpt>
      <trkpt lat="48.68264" lon="1.75639">
        <ele>153</ele>
        <time>2014-11-28T12:16:04.000Z</time>
      </trkpt>
      <trkpt lat="48.68281" lon="1.75644">
        <ele>152.80000305176</ele>
        <time>2014-11-28T12:16:16.000Z</time>
      </trkpt>
      <trkpt lat="48.68292" lon="1.75646">
        <ele>152.80000305176</ele>
        <time>2014-11-28T12:16:24.000Z</time>
      </trkpt>
      <trkpt lat="48.68307" lon="1.75648">
        <ele>152.60000610352</ele>
        <time>2014-11-28T12:16:34.000Z</time>
      </trkpt>
      <trkpt lat="48.68319" lon="1.75647">
        <ele>152.39999389648</ele>
        <time>2014-11-28T12:16:43.000Z</time>
      </trkpt>
      <trkpt lat="48.6833" lon="1.75644">
        <ele>152.19999694824</ele>
        <time>2014-11-28T12:16:51.000Z</time>
      </trkpt>
      <trkpt lat="48.68338" lon="1.75639">
        <ele>152.19999694824</ele>
        <time>2014-11-28T12:16:58.000Z</time>
      </trkpt>
      <trkpt lat="48.68341" lon="1.75637">
        <ele>152.19999694824</ele>
        <time>2014-11-28T12:17:00.000Z</time>
      </trkpt>
      <trkpt lat="48.68352" lon="1.75628">
        <ele>152.39999389648</ele>
        <time>2014-11-28T12:17:09.000Z</time>
      </trkpt>
      <trkpt lat="48.68368" lon="1.75618">
        <ele>152.80000305176</ele>
        <time>2014-11-28T12:17:22.000Z</time>
      </trkpt>
      <trkpt lat="48.68382" lon="1.75612">
        <ele>153.19999694824</ele>
        <time>2014-11-28T12:17:32.000Z</time>
      </trkpt>
      <trkpt lat="48.68392" lon="1.75603">
        <ele>153.60000610352</ele>
        <time>2014-11-28T12:17:39.000Z</time>
      </trkpt>
      <trkpt lat="48.684" lon="1.75597">
        <ele>153.80000305176</ele>
        <time>2014-11-28T12:17:46.000Z</time>
      </trkpt>
      <trkpt lat="48.68408" lon="1.75594">
        <ele>154</ele>
        <time>2014-11-28T12:17:52.000Z</time>
      </trkpt>
      <trkpt lat="48.68415" lon="1.75589">
        <ele>154.19999694824</ele>
        <time>2014-11-28T12:17:59.000Z</time>
      </trkpt>
      <trkpt lat="48.68422" lon="1.75582">
        <ele>154.60000610352</ele>
        <time>2014-11-28T12:18:05.000Z</time>
      </trkpt>
      <trkpt lat="48.68433" lon="1.75575">
        <ele>154.80000305176</ele>
        <time>2014-11-28T12:18:13.000Z</time>
      </trkpt>
      <trkpt lat="48.68442" lon="1.75572">
        <ele>155</ele>
        <time>2014-11-28T12:18:19.000Z</time>
      </trkpt>
      <trkpt lat="48.68443" lon="1.75571">
        <ele>155</ele>
        <time>2014-11-28T12:18:20.000Z</time>
      </trkpt>
      <trkpt lat="48.68458" lon="1.75565">
        <ele>155.39999389648</ele>
        <time>2014-11-28T12:18:30.000Z</time>
      </trkpt>
      <trkpt lat="48.68468" lon="1.7556">
        <ele>155.80000305176</ele>
        <time>2014-11-28T12:18:36.000Z</time>
      </trkpt>
      <trkpt lat="48.6848" lon="1.75554">
        <ele>156.19999694824</ele>
        <time>2014-11-28T12:18:45.000Z</time>
      </trkpt>
      <trkpt lat="48.68486" lon="1.7555">
        <ele>156.39999389648</ele>
        <time>2014-11-28T12:18:50.000Z</time>
      </trkpt>
      <trkpt lat="48.68496" lon="1.75544">
        <ele>156.80000305176</ele>
        <time>2014-11-28T12:18:57.000Z</time>
      </trkpt>
      <trkpt lat="48.68501" lon="1.75543">
        <ele>156.80000305176</ele>
        <time>2014-11-28T12:19:01.000Z</time>
      </trkpt>
      <trkpt lat="48.68509" lon="1.75546">
        <ele>156.39999389648</ele>
        <time>2014-11-28T12:19:07.000Z</time>
      </trkpt>
      <trkpt lat="48.68514" lon="1.75564">
        <ele>155.39999389648</ele>
        <time>2014-11-28T12:19:16.000Z</time>
      </trkpt>
      <trkpt lat="48.68516" lon="1.7558">
        <ele>155</ele>
        <time>2014-11-28T12:19:23.000Z</time>
      </trkpt>
      <trkpt lat="48.68518" lon="1.75595">
        <ele>155</ele>
        <time>2014-11-28T12:19:30.000Z</time>
      </trkpt>
      <trkpt lat="48.68519" lon="1.75609">
        <ele>155</ele>
        <time>2014-11-28T12:19:37.000Z</time>
      </trkpt>
      <trkpt lat="48.6852" lon="1.75615">
        <ele>155</ele>
        <time>2014-11-28T12:19:40.000Z</time>
      </trkpt>
      <trkpt lat="48.68521" lon="1.75626">
        <ele>155</ele>
        <time>2014-11-28T12:19:45.000Z</time>
      </trkpt>
      <trkpt lat="48.68524" lon="1.75646">
        <ele>155.19999694824</ele>
        <time>2014-11-28T12:19:54.000Z</time>
      </trkpt>
      <trkpt lat="48.68526" lon="1.75664">
        <ele>155</ele>
        <time>2014-11-28T12:20:02.000Z</time>
      </trkpt>
      <trkpt lat="48.68528" lon="1.75675">
        <ele>154.80000305176</ele>
        <time>2014-11-28T12:20:08.000Z</time>
      </trkpt>
      <trkpt lat="48.6853" lon="1.7569">
        <ele>154.60000610352</ele>
        <time>2014-11-28T12:20:15.000Z</time>
      </trkpt>
      <trkpt lat="48.68532" lon="1.75706">
        <ele>154.19999694824</ele>
        <time>2014-11-28T12:20:23.000Z</time>
      </trkpt>
      <trkpt lat="48.68534" lon="1.75722">
        <ele>153.80000305176</ele>
        <time>2014-11-28T12:20:30.000Z</time>
      </trkpt>
      <trkpt lat="48.68537" lon="1.75739">
        <ele>153.60000610352</ele>
        <time>2014-11-28T12:20:37.000Z</time>
      </trkpt>
      <trkpt lat="48.6854" lon="1.75759">
        <ele>153.19999694824</ele>
        <time>2014-11-28T12:20:46.000Z</time>
      </trkpt>
      <trkpt lat="48.68543" lon="1.75781">
        <ele>153</ele>
        <time>2014-11-28T12:20:56.000Z</time>
      </trkpt>
      <trkpt lat="48.68545" lon="1.75798">
        <ele>152.80000305176</ele>
        <time>2014-11-28T12:21:04.000Z</time>
      </trkpt>
      <trkpt lat="48.68547" lon="1.75815">
        <ele>152.80000305176</ele>
        <time>2014-11-28T12:21:12.000Z</time>
      </trkpt>
      <trkpt lat="48.68547" lon="1.75828">
        <ele>152.60000610352</ele>
        <time>2014-11-28T12:21:20.000Z</time>
      </trkpt>
      <trkpt lat="48.68549" lon="1.75842">
        <ele>152.39999389648</ele>
        <time>2014-11-28T12:21:27.000Z</time>
      </trkpt>
      <trkpt lat="48.68552" lon="1.75861">
        <ele>152.19999694824</ele>
        <time>2014-11-28T12:21:36.000Z</time>
      </trkpt>
      <trkpt lat="48.68555" lon="1.7588">
        <ele>151.60000610352</ele>
        <time>2014-11-28T12:21:46.000Z</time>
      </trkpt>
      <trkpt lat="48.68559" lon="1.75903">
        <ele>151</ele>
        <time>2014-11-28T12:21:57.000Z</time>
      </trkpt>
      <trkpt lat="48.68561" lon="1.75919">
        <ele>151</ele>
        <time>2014-11-28T12:22:05.000Z</time>
      </trkpt>
      <trkpt lat="48.68564" lon="1.75937">
        <ele>151.19999694824</ele>
        <time>2014-11-28T12:22:14.000Z</time>
      </trkpt>
      <trkpt lat="48.68566" lon="1.7596">
        <ele>151.39999389648</ele>
        <time>2014-11-28T12:22:25.000Z</time>
      </trkpt>
      <trkpt lat="48.68569" lon="1.75974">
        <ele>151.60000610352</ele>
        <time>2014-11-28T12:22:32.000Z</time>
      </trkpt>
      <trkpt lat="48.68571" lon="1.75993">
        <ele>151.80000305176</ele>
        <time>2014-11-28T12:22:42.000Z</time>
      </trkpt>
      <trkpt lat="48.68577" lon="1.76004">
        <ele>152</ele>
        <time>2014-11-28T12:22:50.000Z</time>
      </trkpt>
      <trkpt lat="48.68589" lon="1.76008">
        <ele>152.39999389648</ele>
        <time>2014-11-28T12:22:56.000Z</time>
      </trkpt>
      <trkpt lat="48.68603" lon="1.76011">
        <ele>153</ele>
        <time>2014-11-28T12:23:01.000Z</time>
      </trkpt>
      <trkpt lat="48.68628" lon="1.76019">
        <ele>154.60000610352</ele>
        <time>2014-11-28T12:23:09.000Z</time>
      </trkpt>
      <trkpt lat="48.68648" lon="1.76027">
        <ele>155.80000305176</ele>
        <time>2014-11-28T12:23:15.000Z</time>
      </trkpt>
      <trkpt lat="48.68667" lon="1.76034">
        <ele>157.19999694824</ele>
        <time>2014-11-28T12:23:21.000Z</time>
      </trkpt>
      <trkpt lat="48.68682" lon="1.76039">
        <ele>158.39999389648</ele>
        <time>2014-11-28T12:23:26.000Z</time>
      </trkpt>
      <trkpt lat="48.687" lon="1.76044">
        <ele>159.60000610352</ele>
        <time>2014-11-28T12:23:32.000Z</time>
      </trkpt>
      <trkpt lat="48.68716" lon="1.76051">
        <ele>160.60000610352</ele>
        <time>2014-11-28T12:23:38.000Z</time>
      </trkpt>
      <trkpt lat="48.68731" lon="1.76058">
        <ele>161.60000610352</ele>
        <time>2014-11-28T12:23:43.000Z</time>
      </trkpt>
      <trkpt lat="48.68752" lon="1.76064">
        <ele>162.80000305176</ele>
        <time>2014-11-28T12:23:49.000Z</time>
      </trkpt>
      <trkpt lat="48.68766" lon="1.76069">
        <ele>163.80000305176</ele>
        <time>2014-11-28T12:23:55.000Z</time>
      </trkpt>
      <trkpt lat="48.68776" lon="1.76075">
        <ele>164.39999389648</ele>
        <time>2014-11-28T12:24:03.000Z</time>
      </trkpt>
      <trkpt lat="48.68788" lon="1.7608">
        <ele>165</ele>
        <time>2014-11-28T12:24:11.000Z</time>
      </trkpt>
      <trkpt lat="48.68801" lon="1.76085">
        <ele>165.60000610352</ele>
        <time>2014-11-28T12:24:20.000Z</time>
      </trkpt>
      <trkpt lat="48.68814" lon="1.76089">
        <ele>166.19999694824</ele>
        <time>2014-11-28T12:24:29.000Z</time>
      </trkpt>
      <trkpt lat="48.68822" lon="1.7609">
        <ele>166.60000610352</ele>
        <time>2014-11-28T12:24:35.000Z</time>
      </trkpt>
      <trkpt lat="48.68833" lon="1.76095">
        <ele>167.19999694824</ele>
        <time>2014-11-28T12:24:43.000Z</time>
      </trkpt>
      <trkpt lat="48.68837" lon="1.76096">
        <ele>167.39999389648</ele>
        <time>2014-11-28T12:24:46.000Z</time>
      </trkpt>
      <trkpt lat="48.68848" lon="1.76102">
        <ele>168</ele>
        <time>2014-11-28T12:24:55.000Z</time>
      </trkpt>
      <trkpt lat="48.68858" lon="1.76105">
        <ele>168.60000610352</ele>
        <time>2014-11-28T12:25:02.000Z</time>
      </trkpt>
      <trkpt lat="48.68867" lon="1.76108">
        <ele>169.19999694824</ele>
        <time>2014-11-28T12:25:08.000Z</time>
      </trkpt>
      <trkpt lat="48.68876" lon="1.7611">
        <ele>170</ele>
        <time>2014-11-28T12:25:15.000Z</time>
      </trkpt>
      <trkpt lat="48.68877" lon="1.76111">
        <ele>170.19999694824</ele>
        <time>2014-11-28T12:25:16.000Z</time>
      </trkpt>
      <trkpt lat="48.68888" lon="1.76114">
        <ele>171</ele>
        <time>2014-11-28T12:25:23.000Z</time>
      </trkpt>
      <trkpt lat="48.68897" lon="1.76115">
        <ele>171.80000305176</ele>
        <time>2014-11-28T12:25:29.000Z</time>
      </trkpt>
      <trkpt lat="48.68907" lon="1.76118">
        <ele>172.39999389648</ele>
        <time>2014-11-28T12:25:37.000Z</time>
      </trkpt>
      <trkpt lat="48.68918" lon="1.76118">
        <ele>173.19999694824</ele>
        <time>2014-11-28T12:25:45.000Z</time>
      </trkpt>
      <trkpt lat="48.68921" lon="1.76119">
        <ele>173.39999389648</ele>
        <time>2014-11-28T12:25:47.000Z</time>
      </trkpt>
      <trkpt lat="48.68926" lon="1.76123">
        <ele>173.80000305176</ele>
        <time>2014-11-28T12:25:53.000Z</time>
      </trkpt>
      <trkpt lat="48.68933" lon="1.76126">
        <ele>174.39999389648</ele>
        <time>2014-11-28T12:25:59.000Z</time>
      </trkpt>
      <trkpt lat="48.68946" lon="1.76128">
        <ele>175.60000610352</ele>
        <time>2014-11-28T12:26:08.000Z</time>
      </trkpt>
      <trkpt lat="48.68955" lon="1.76132">
        <ele>176.60000610352</ele>
        <time>2014-11-28T12:26:15.000Z</time>
      </trkpt>
      <trkpt lat="48.68959" lon="1.76134">
        <ele>176.80000305176</ele>
        <time>2014-11-28T12:26:18.000Z</time>
      </trkpt>
      <trkpt lat="48.68964" lon="1.76137">
        <ele>177.39999389648</ele>
        <time>2014-11-28T12:26:23.000Z</time>
      </trkpt>
      <trkpt lat="48.68969" lon="1.7614">
        <ele>178</ele>
        <time>2014-11-28T12:26:27.000Z</time>
      </trkpt>
      <trkpt lat="48.68974" lon="1.76142">
        <ele>178.60000610352</ele>
        <time>2014-11-28T12:26:33.000Z</time>
      </trkpt>
      <trkpt lat="48.68975" lon="1.76143">
        <ele>178.80000305176</ele>
        <time>2014-11-28T12:26:34.000Z</time>
      </trkpt>
      <trkpt lat="48.6898" lon="1.76149">
        <ele>179.39999389648</ele>
        <time>2014-11-28T12:26:40.000Z</time>
      </trkpt>
      <trkpt lat="48.68988" lon="1.76155">
        <ele>180.39999389648</ele>
        <time>2014-11-28T12:26:47.000Z</time>
      </trkpt>
      <trkpt lat="48.6899" lon="1.76156">
        <ele>180.39999389648</ele>
        <time>2014-11-28T12:26:48.000Z</time>
      </trkpt>
      <trkpt lat="48.68999" lon="1.76161">
        <ele>181.19999694824</ele>
        <time>2014-11-28T12:26:56.000Z</time>
      </trkpt>
      <trkpt lat="48.69006" lon="1.76164">
        <ele>181.80000305176</ele>
        <time>2014-11-28T12:27:02.000Z</time>
      </trkpt>
      <trkpt lat="48.6901" lon="1.76165">
        <ele>182.19999694824</ele>
        <time>2014-11-28T12:27:05.000Z</time>
      </trkpt>
      <trkpt lat="48.69015" lon="1.76168">
        <ele>182.60000610352</ele>
        <time>2014-11-28T12:27:10.000Z</time>
      </trkpt>
      <trkpt lat="48.69025" lon="1.76175">
        <ele>183</ele>
        <time>2014-11-28T12:27:18.000Z</time>
      </trkpt>
      <trkpt lat="48.69028" lon="1.76176">
        <ele>183</ele>
        <time>2014-11-28T12:27:20.000Z</time>
      </trkpt>
      <trkpt lat="48.69038" lon="1.76183">
        <ele>183.19999694824</ele>
        <time>2014-11-28T12:27:29.000Z</time>
      </trkpt>
      <trkpt lat="48.69046" lon="1.7619">
        <ele>183.39999389648</ele>
        <time>2014-11-28T12:27:36.000Z</time>
      </trkpt>
      <trkpt lat="48.69055" lon="1.76196">
        <ele>183.39999389648</ele>
        <time>2014-11-28T12:27:43.000Z</time>
      </trkpt>
      <trkpt lat="48.69059" lon="1.76198">
        <ele>183.39999389648</ele>
        <time>2014-11-28T12:27:45.000Z</time>
      </trkpt>
      <trkpt lat="48.69068" lon="1.76201">
        <ele>183.60000610352</ele>
        <time>2014-11-28T12:27:52.000Z</time>
      </trkpt>
      <trkpt lat="48.69077" lon="1.76207">
        <ele>183.60000610352</ele>
        <time>2014-11-28T12:27:59.000Z</time>
      </trkpt>
      <trkpt lat="48.69078" lon="1.76209">
        <ele>183.60000610352</ele>
        <time>2014-11-28T12:28:00.000Z</time>
      </trkpt>
      <trkpt lat="48.69086" lon="1.76215">
        <ele>183.60000610352</ele>
        <time>2014-11-28T12:28:09.000Z</time>
      </trkpt>
      <trkpt lat="48.69091" lon="1.76217">
        <ele>183.60000610352</ele>
        <time>2014-11-28T12:28:12.000Z</time>
      </trkpt>
      <trkpt lat="48.69102" lon="1.76223">
        <ele>183.60000610352</ele>
        <time>2014-11-28T12:28:19.000Z</time>
      </trkpt>
      <trkpt lat="48.69106" lon="1.76225">
        <ele>183.60000610352</ele>
        <time>2014-11-28T12:28:21.000Z</time>
      </trkpt>
      <trkpt lat="48.69119" lon="1.76234">
        <ele>183.80000305176</ele>
        <time>2014-11-28T12:28:30.000Z</time>
      </trkpt>
      <trkpt lat="48.69126" lon="1.76237">
        <ele>183.80000305176</ele>
        <time>2014-11-28T12:28:36.000Z</time>
      </trkpt>
      <trkpt lat="48.69137" lon="1.76244">
        <ele>183.60000610352</ele>
        <time>2014-11-28T12:28:44.000Z</time>
      </trkpt>
      <trkpt lat="48.6914" lon="1.76245">
        <ele>183.60000610352</ele>
        <time>2014-11-28T12:28:46.000Z</time>
      </trkpt>
      <trkpt lat="48.69145" lon="1.76245">
        <ele>183.60000610352</ele>
        <time>2014-11-28T12:28:50.000Z</time>
      </trkpt>
      <trkpt lat="48.6915" lon="1.76249">
        <ele>183.39999389648</ele>
        <time>2014-11-28T12:28:55.000Z</time>
      </trkpt>
      <trkpt lat="48.69156" lon="1.76253">
        <ele>183.39999389648</ele>
        <time>2014-11-28T12:29:01.000Z</time>
      </trkpt>
      <trkpt lat="48.69166" lon="1.76259">
        <ele>183.19999694824</ele>
        <time>2014-11-28T12:29:10.000Z</time>
      </trkpt>
      <trkpt lat="48.69174" lon="1.76264">
        <ele>183.19999694824</ele>
        <time>2014-11-28T12:29:17.000Z</time>
      </trkpt>
      <trkpt lat="48.69182" lon="1.76269">
        <ele>183</ele>
        <time>2014-11-28T12:29:23.000Z</time>
      </trkpt>
      <trkpt lat="48.69192" lon="1.76274">
        <ele>182.80000305176</ele>
        <time>2014-11-28T12:29:30.000Z</time>
      </trkpt>
      <trkpt lat="48.69201" lon="1.76281">
        <ele>182.60000610352</ele>
        <time>2014-11-28T12:29:38.000Z</time>
      </trkpt>
      <trkpt lat="48.6921" lon="1.76286">
        <ele>182.39999389648</ele>
        <time>2014-11-28T12:29:46.000Z</time>
      </trkpt>
      <trkpt lat="48.69221" lon="1.76291">
        <ele>182.19999694824</ele>
        <time>2014-11-28T12:29:53.000Z</time>
      </trkpt>
      <trkpt lat="48.69229" lon="1.76296">
        <ele>182</ele>
        <time>2014-11-28T12:30:00.000Z</time>
      </trkpt>
      <trkpt lat="48.69231" lon="1.76297">
        <ele>182</ele>
        <time>2014-11-28T12:30:01.000Z</time>
      </trkpt>
      <trkpt lat="48.69235" lon="1.76299">
        <ele>181.80000305176</ele>
        <time>2014-11-28T12:30:05.000Z</time>
      </trkpt>
      <trkpt lat="48.69248" lon="1.76305">
        <ele>181.60000610352</ele>
        <time>2014-11-28T12:30:14.000Z</time>
      </trkpt>
      <trkpt lat="48.69256" lon="1.76311">
        <ele>181.39999389648</ele>
        <time>2014-11-28T12:30:21.000Z</time>
      </trkpt>
      <trkpt lat="48.69269" lon="1.7632">
        <ele>181</ele>
        <time>2014-11-28T12:30:30.000Z</time>
      </trkpt>
      <trkpt lat="48.69278" lon="1.76327">
        <ele>180.80000305176</ele>
        <time>2014-11-28T12:30:36.000Z</time>
      </trkpt>
      <trkpt lat="48.69284" lon="1.76329">
        <ele>180.60000610352</ele>
        <time>2014-11-28T12:30:40.000Z</time>
      </trkpt>
      <trkpt lat="48.69292" lon="1.76327">
        <ele>181</ele>
        <time>2014-11-28T12:30:45.000Z</time>
      </trkpt>
      <trkpt lat="48.69299" lon="1.7632">
        <ele>181.39999389648</ele>
        <time>2014-11-28T12:30:51.000Z</time>
      </trkpt>
      <trkpt lat="48.69304" lon="1.76311">
        <ele>181.60000610352</ele>
        <time>2014-11-28T12:30:57.000Z</time>
      </trkpt>
      <trkpt lat="48.69306" lon="1.76302">
        <ele>181.60000610352</ele>
        <time>2014-11-28T12:31:02.000Z</time>
      </trkpt>
      <trkpt lat="48.69312" lon="1.76293">
        <ele>181.80000305176</ele>
        <time>2014-11-28T12:31:07.000Z</time>
      </trkpt>
      <trkpt lat="48.69317" lon="1.76288">
        <ele>182</ele>
        <time>2014-11-28T12:31:12.000Z</time>
      </trkpt>
      <trkpt lat="48.69322" lon="1.76281">
        <ele>182.19999694824</ele>
        <time>2014-11-28T12:31:17.000Z</time>
      </trkpt>
      <trkpt lat="48.6933" lon="1.76272">
        <ele>182.39999389648</ele>
        <time>2014-11-28T12:31:23.000Z</time>
      </trkpt>
      <trkpt lat="48.69339" lon="1.76262">
        <ele>182.60000610352</ele>
        <time>2014-11-28T12:31:31.000Z</time>
      </trkpt>
      <trkpt lat="48.69343" lon="1.76256">
        <ele>182.60000610352</ele>
        <time>2014-11-28T12:31:35.000Z</time>
      </trkpt>
      <trkpt lat="48.69348" lon="1.76242">
        <ele>182.80000305176</ele>
        <time>2014-11-28T12:31:43.000Z</time>
      </trkpt>
      <trkpt lat="48.69353" lon="1.76232">
        <ele>183</ele>
        <time>2014-11-28T12:31:49.000Z</time>
      </trkpt>
      <trkpt lat="48.6936" lon="1.76222">
        <ele>182.80000305176</ele>
        <time>2014-11-28T12:31:56.000Z</time>
      </trkpt>
      <trkpt lat="48.69363" lon="1.76213">
        <ele>182.60000610352</ele>
        <time>2014-11-28T12:32:02.000Z</time>
      </trkpt>
      <trkpt lat="48.6937" lon="1.76194">
        <ele>182.19999694824</ele>
        <time>2014-11-28T12:32:13.000Z</time>
      </trkpt>
      <trkpt lat="48.69377" lon="1.76182">
        <ele>182</ele>
        <time>2014-11-28T12:32:21.000Z</time>
      </trkpt>
      <trkpt lat="48.69378" lon="1.76176">
        <ele>182</ele>
        <time>2014-11-28T12:32:24.000Z</time>
      </trkpt>
      <trkpt lat="48.6938" lon="1.7617">
        <ele>182</ele>
        <time>2014-11-28T12:32:28.000Z</time>
      </trkpt>
      <trkpt lat="48.69385" lon="1.76155">
        <ele>182</ele>
        <time>2014-11-28T12:32:36.000Z</time>
      </trkpt>
      <trkpt lat="48.69392" lon="1.76137">
        <ele>181.19999694824</ele>
        <time>2014-11-28T12:32:45.000Z</time>
      </trkpt>
      <trkpt lat="48.69396" lon="1.76125">
        <ele>180.60000610352</ele>
        <time>2014-11-28T12:32:51.000Z</time>
      </trkpt>
      <trkpt lat="48.69401" lon="1.76115">
        <ele>180</ele>
        <time>2014-11-28T12:32:58.000Z</time>
      </trkpt>
      <trkpt lat="48.69409" lon="1.76099">
        <ele>179</ele>
        <time>2014-11-28T12:33:06.000Z</time>
      </trkpt>
      <trkpt lat="48.69414" lon="1.76088">
        <ele>178.19999694824</ele>
        <time>2014-11-28T12:33:13.000Z</time>
      </trkpt>
      <trkpt lat="48.69417" lon="1.76078">
        <ele>177.60000610352</ele>
        <time>2014-11-28T12:33:19.000Z</time>
      </trkpt>
      <trkpt lat="48.6942" lon="1.76069">
        <ele>177.19999694824</ele>
        <time>2014-11-28T12:33:23.000Z</time>
      </trkpt>
      <trkpt lat="48.69416" lon="1.76057">
        <ele>176.60000610352</ele>
        <time>2014-11-28T12:33:29.000Z</time>
      </trkpt>
      <trkpt lat="48.69409" lon="1.76045">
        <ele>176</ele>
        <time>2014-11-28T12:33:36.000Z</time>
      </trkpt>
      <trkpt lat="48.69402" lon="1.76034">
        <ele>175.60000610352</ele>
        <time>2014-11-28T12:33:43.000Z</time>
      </trkpt>
      <trkpt lat="48.69397" lon="1.76025">
        <ele>175.39999389648</ele>
        <time>2014-11-28T12:33:48.000Z</time>
      </trkpt>
      <trkpt lat="48.6939" lon="1.76013">
        <ele>175</ele>
        <time>2014-11-28T12:33:56.000Z</time>
      </trkpt>
      <trkpt lat="48.69382" lon="1.76">
        <ele>174.39999389648</ele>
        <time>2014-11-28T12:34:04.000Z</time>
      </trkpt>
      <trkpt lat="48.6938" lon="1.75995">
        <ele>174.19999694824</ele>
        <time>2014-11-28T12:34:08.000Z</time>
      </trkpt>
      <trkpt lat="48.69377" lon="1.75993">
        <ele>174.19999694824</ele>
        <time>2014-11-28T12:34:13.000Z</time>
      </trkpt>
      <trkpt lat="48.69373" lon="1.75986">
        <ele>174</ele>
        <time>2014-11-28T12:34:20.000Z</time>
      </trkpt>
      <trkpt lat="48.69368" lon="1.75976">
        <ele>173.19999694824</ele>
        <time>2014-11-28T12:34:25.000Z</time>
      </trkpt>
      <trkpt lat="48.69361" lon="1.75962">
        <ele>172.19999694824</ele>
        <time>2014-11-28T12:34:33.000Z</time>
      </trkpt>
      <trkpt lat="48.69356" lon="1.75952">
        <ele>171.39999389648</ele>
        <time>2014-11-28T12:34:40.000Z</time>
      </trkpt>
      <trkpt lat="48.69347" lon="1.75939">
        <ele>170.60000610352</ele>
        <time>2014-11-28T12:34:49.000Z</time>
      </trkpt>
      <trkpt lat="48.69341" lon="1.75927">
        <ele>169.80000305176</ele>
        <time>2014-11-28T12:34:56.000Z</time>
      </trkpt>
      <trkpt lat="48.69336" lon="1.75916">
        <ele>169</ele>
        <time>2014-11-28T12:35:03.000Z</time>
      </trkpt>
      <trkpt lat="48.69331" lon="1.75907">
        <ele>168.39999389648</ele>
        <time>2014-11-28T12:35:09.000Z</time>
      </trkpt>
      <trkpt lat="48.69325" lon="1.75898">
        <ele>168</ele>
        <time>2014-11-28T12:35:15.000Z</time>
      </trkpt>
      <trkpt lat="48.69316" lon="1.75884">
        <ele>167.19999694824</ele>
        <time>2014-11-28T12:35:23.000Z</time>
      </trkpt>
      <trkpt lat="48.69309" lon="1.75874">
        <ele>166.60000610352</ele>
        <time>2014-11-28T12:35:31.000Z</time>
      </trkpt>
      <trkpt lat="48.693" lon="1.7586">
        <ele>166</ele>
        <time>2014-11-28T12:35:39.000Z</time>
      </trkpt>
      <trkpt lat="48.69291" lon="1.75842">
        <ele>165</ele>
        <time>2014-11-28T12:35:49.000Z</time>
      </trkpt>
      <trkpt lat="48.6929" lon="1.7584">
        <ele>165</ele>
        <time>2014-11-28T12:35:50.000Z</time>
      </trkpt>
      <trkpt lat="48.69295" lon="1.75829">
        <ele>164.60000610352</ele>
        <time>2014-11-28T12:35:55.000Z</time>
      </trkpt>
      <trkpt lat="48.69302" lon="1.75827">
        <ele>164.60000610352</ele>
        <time>2014-11-28T12:36:01.000Z</time>
      </trkpt>
      <trkpt lat="48.69316" lon="1.75826">
        <ele>164.80000305176</ele>
        <time>2014-11-28T12:36:12.000Z</time>
      </trkpt>
      <trkpt lat="48.69328" lon="1.75827">
        <ele>164.80000305176</ele>
        <time>2014-11-28T12:36:20.000Z</time>
      </trkpt>
      <trkpt lat="48.69339" lon="1.75827">
        <ele>165</ele>
        <time>2014-11-28T12:36:25.000Z</time>
      </trkpt>
      <trkpt lat="48.69354" lon="1.75828">
        <ele>165.19999694824</ele>
        <time>2014-11-28T12:36:30.000Z</time>
      </trkpt>
      <trkpt lat="48.69374" lon="1.75832">
        <ele>165.80000305176</ele>
        <time>2014-11-28T12:36:37.000Z</time>
      </trkpt>
      <trkpt lat="48.6939" lon="1.75834">
        <ele>166.19999694824</ele>
        <time>2014-11-28T12:36:42.000Z</time>
      </trkpt>
      <trkpt lat="48.69404" lon="1.75837">
        <ele>166.60000610352</ele>
        <time>2014-11-28T12:36:47.000Z</time>
      </trkpt>
      <trkpt lat="48.69417" lon="1.75844">
        <ele>167</ele>
        <time>2014-11-28T12:36:52.000Z</time>
      </trkpt>
      <trkpt lat="48.69435" lon="1.7585">
        <ele>167.60000610352</ele>
        <time>2014-11-28T12:36:58.000Z</time>
      </trkpt>
      <trkpt lat="48.6945" lon="1.75851">
        <ele>168</ele>
        <time>2014-11-28T12:37:03.000Z</time>
      </trkpt>
      <trkpt lat="48.6947" lon="1.75852">
        <ele>168.39999389648</ele>
        <time>2014-11-28T12:37:09.000Z</time>
      </trkpt>
      <trkpt lat="48.69489" lon="1.7585">
        <ele>167.60000610352</ele>
        <time>2014-11-28T12:37:15.000Z</time>
      </trkpt>
      <trkpt lat="48.69506" lon="1.75851">
        <ele>167</ele>
        <time>2014-11-28T12:37:20.000Z</time>
      </trkpt>
      <trkpt lat="48.6953" lon="1.75853">
        <ele>166.39999389648</ele>
        <time>2014-11-28T12:37:27.000Z</time>
      </trkpt>
      <trkpt lat="48.69551" lon="1.75852">
        <ele>165.80000305176</ele>
        <time>2014-11-28T12:37:33.000Z</time>
      </trkpt>
      <trkpt lat="48.69571" lon="1.75851">
        <ele>166.39999389648</ele>
        <time>2014-11-28T12:37:40.000Z</time>
      </trkpt>
      <trkpt lat="48.69587" lon="1.75853">
        <ele>166.80000305176</ele>
        <time>2014-11-28T12:37:46.000Z</time>
      </trkpt>
      <trkpt lat="48.69605" lon="1.75858">
        <ele>167.39999389648</ele>
        <time>2014-11-28T12:37:52.000Z</time>
      </trkpt>
      <trkpt lat="48.69619" lon="1.75865">
        <ele>167.19999694824</ele>
        <time>2014-11-28T12:37:57.000Z</time>
      </trkpt>
      <trkpt lat="48.69633" lon="1.75873">
        <ele>167.19999694824</ele>
        <time>2014-11-28T12:38:02.000Z</time>
      </trkpt>
      <trkpt lat="48.69646" lon="1.75876">
        <ele>167</ele>
        <time>2014-11-28T12:38:07.000Z</time>
      </trkpt>
      <trkpt lat="48.69647" lon="1.75877">
        <ele>167</ele>
        <time>2014-11-28T12:38:08.000Z</time>
      </trkpt>
      <trkpt lat="48.69653" lon="1.75891">
        <ele>167.39999389648</ele>
        <time>2014-11-28T12:38:15.000Z</time>
      </trkpt>
      <trkpt lat="48.69664" lon="1.75898">
        <ele>167.39999389648</ele>
        <time>2014-11-28T12:38:23.000Z</time>
      </trkpt>
      <trkpt lat="48.69676" lon="1.75905">
        <ele>167.39999389648</ele>
        <time>2014-11-28T12:38:32.000Z</time>
      </trkpt>
      <trkpt lat="48.69689" lon="1.7591">
        <ele>167.39999389648</ele>
        <time>2014-11-28T12:38:39.000Z</time>
      </trkpt>
      <trkpt lat="48.69696" lon="1.75913">
        <ele>167.39999389648</ele>
        <time>2014-11-28T12:38:44.000Z</time>
      </trkpt>
      <trkpt lat="48.69697" lon="1.75914">
        <ele>167.39999389648</ele>
        <time>2014-11-28T12:38:45.000Z</time>
      </trkpt>
      <trkpt lat="48.69708" lon="1.75922">
        <ele>167.60000610352</ele>
        <time>2014-11-28T12:38:54.000Z</time>
      </trkpt>
      <trkpt lat="48.69719" lon="1.75927">
        <ele>167.80000305176</ele>
        <time>2014-11-28T12:39:02.000Z</time>
      </trkpt>
      <trkpt lat="48.69725" lon="1.75933">
        <ele>168</ele>
        <time>2014-11-28T12:39:08.000Z</time>
      </trkpt>
      <trkpt lat="48.69733" lon="1.75935">
        <ele>168</ele>
        <time>2014-11-28T12:39:15.000Z</time>
      </trkpt>
      <trkpt lat="48.6974" lon="1.75937">
        <ele>168</ele>
        <time>2014-11-28T12:39:20.000Z</time>
      </trkpt>
      <trkpt lat="48.69744" lon="1.75939">
        <ele>168</ele>
        <time>2014-11-28T12:39:23.000Z</time>
      </trkpt>
      <trkpt lat="48.69752" lon="1.75942">
        <ele>168</ele>
        <time>2014-11-28T12:39:29.000Z</time>
      </trkpt>
      <trkpt lat="48.69754" lon="1.75943">
        <ele>168</ele>
        <time>2014-11-28T12:39:30.000Z</time>
      </trkpt>
      <trkpt lat="48.69762" lon="1.7595">
        <ele>168.39999389648</ele>
        <time>2014-11-28T12:39:38.000Z</time>
      </trkpt>
      <trkpt lat="48.69769" lon="1.75955">
        <ele>168.39999389648</ele>
        <time>2014-11-28T12:39:43.000Z</time>
      </trkpt>
      <trkpt lat="48.69781" lon="1.75963">
        <ele>168.39999389648</ele>
        <time>2014-11-28T12:39:51.000Z</time>
      </trkpt>
      <trkpt lat="48.69791" lon="1.75968">
        <ele>168.19999694824</ele>
        <time>2014-11-28T12:39:57.000Z</time>
      </trkpt>
      <trkpt lat="48.69796" lon="1.75972">
        <ele>168.39999389648</ele>
        <time>2014-11-28T12:40:01.000Z</time>
      </trkpt>
      <trkpt lat="48.69801" lon="1.75976">
        <ele>168.39999389648</ele>
        <time>2014-11-28T12:40:07.000Z</time>
      </trkpt>
      <trkpt lat="48.69808" lon="1.75979">
        <ele>168.19999694824</ele>
        <time>2014-11-28T12:40:13.000Z</time>
      </trkpt>
      <trkpt lat="48.69814" lon="1.75981">
        <ele>168</ele>
        <time>2014-11-28T12:40:17.000Z</time>
      </trkpt>
      <trkpt lat="48.69827" lon="1.75985">
        <ele>167.80000305176</ele>
        <time>2014-11-28T12:40:25.000Z</time>
      </trkpt>
      <trkpt lat="48.69834" lon="1.7599">
        <ele>167.80000305176</ele>
        <time>2014-11-28T12:40:31.000Z</time>
      </trkpt>
      <trkpt lat="48.69837" lon="1.75992">
        <ele>167.80000305176</ele>
        <time>2014-11-28T12:40:34.000Z</time>
      </trkpt>
      <trkpt lat="48.69847" lon="1.75998">
        <ele>167.80000305176</ele>
        <time>2014-11-28T12:40:41.000Z</time>
      </trkpt>
      <trkpt lat="48.69854" lon="1.76006">
        <ele>168</ele>
        <time>2014-11-28T12:40:47.000Z</time>
      </trkpt>
      <trkpt lat="48.69866" lon="1.76012">
        <ele>167.60000610352</ele>
        <time>2014-11-28T12:40:54.000Z</time>
      </trkpt>
      <trkpt lat="48.69877" lon="1.76019">
        <ele>167.19999694824</ele>
        <time>2014-11-28T12:41:01.000Z</time>
      </trkpt>
      <trkpt lat="48.69891" lon="1.76024">
        <ele>166.60000610352</ele>
        <time>2014-11-28T12:41:08.000Z</time>
      </trkpt>
      <trkpt lat="48.69895" lon="1.7603">
        <ele>166.60000610352</ele>
        <time>2014-11-28T12:41:13.000Z</time>
      </trkpt>
      <trkpt lat="48.69901" lon="1.76044">
        <ele>167</ele>
        <time>2014-11-28T12:41:21.000Z</time>
      </trkpt>
      <trkpt lat="48.69904" lon="1.76057">
        <ele>167.60000610352</ele>
        <time>2014-11-28T12:41:27.000Z</time>
      </trkpt>
      <trkpt lat="48.69905" lon="1.76068">
        <ele>168</ele>
        <time>2014-11-28T12:41:33.000Z</time>
      </trkpt>
      <trkpt lat="48.69914" lon="1.76076">
        <ele>167.80000305176</ele>
        <time>2014-11-28T12:41:41.000Z</time>
      </trkpt>
      <trkpt lat="48.69922" lon="1.76083">
        <ele>167.60000610352</ele>
        <time>2014-11-28T12:41:47.000Z</time>
      </trkpt>
      <trkpt lat="48.69934" lon="1.76087">
        <ele>167</ele>
        <time>2014-11-28T12:41:56.000Z</time>
      </trkpt>
      <trkpt lat="48.69944" lon="1.76099">
        <ele>167</ele>
        <time>2014-11-28T12:42:05.000Z</time>
      </trkpt>
      <trkpt lat="48.69954" lon="1.7611">
        <ele>167</ele>
        <time>2014-11-28T12:42:14.000Z</time>
      </trkpt>
      <trkpt lat="48.69963" lon="1.76119">
        <ele>167</ele>
        <time>2014-11-28T12:42:22.000Z</time>
      </trkpt>
      <trkpt lat="48.69972" lon="1.76134">
        <ele>167.39999389648</ele>
        <time>2014-11-28T12:42:31.000Z</time>
      </trkpt>
      <trkpt lat="48.69979" lon="1.76145">
        <ele>167.60000610352</ele>
        <time>2014-11-28T12:42:38.000Z</time>
      </trkpt>
      <trkpt lat="48.69984" lon="1.7616">
        <ele>167.80000305176</ele>
        <time>2014-11-28T12:42:46.000Z</time>
      </trkpt>
      <trkpt lat="48.69985" lon="1.76162">
        <ele>167.80000305176</ele>
        <time>2014-11-28T12:42:47.000Z</time>
      </trkpt>
      <trkpt lat="48.69992" lon="1.76175">
        <ele>167.80000305176</ele>
        <time>2014-11-28T12:42:55.000Z</time>
      </trkpt>
      <trkpt lat="48.69993" lon="1.76177">
        <ele>167.80000305176</ele>
        <time>2014-11-28T12:42:56.000Z</time>
      </trkpt>
      <trkpt lat="48.70003" lon="1.76185">
        <ele>167.60000610352</ele>
        <time>2014-11-28T12:43:04.000Z</time>
      </trkpt>
      <trkpt lat="48.70014" lon="1.76194">
        <ele>167.19999694824</ele>
        <time>2014-11-28T12:43:12.000Z</time>
      </trkpt>
      <trkpt lat="48.70023" lon="1.76201">
        <ele>167.19999694824</ele>
        <time>2014-11-28T12:43:19.000Z</time>
      </trkpt>
      <trkpt lat="48.70028" lon="1.76203">
        <ele>167.19999694824</ele>
        <time>2014-11-28T12:43:22.000Z</time>
      </trkpt>
      <trkpt lat="48.7003" lon="1.76206">
        <ele>167.19999694824</ele>
        <time>2014-11-28T12:43:25.000Z</time>
      </trkpt>
      <trkpt lat="48.70039" lon="1.76211">
        <ele>167.39999389648</ele>
        <time>2014-11-28T12:43:32.000Z</time>
      </trkpt>
      <trkpt lat="48.70039" lon="1.76211">
        <ele>167.39999389648</ele>
        <time>2014-11-28T12:43:33.000Z</time>
      </trkpt>
      <trkpt lat="48.70045" lon="1.76216">
        <ele>167.39999389648</ele>
        <time>2014-11-28T12:43:40.000Z</time>
      </trkpt>
      <trkpt lat="48.70051" lon="1.76223">
        <ele>167.60000610352</ele>
        <time>2014-11-28T12:43:46.000Z</time>
      </trkpt>
      <trkpt lat="48.70055" lon="1.76225">
        <ele>167.60000610352</ele>
        <time>2014-11-28T12:43:49.000Z</time>
      </trkpt>
      <trkpt lat="48.70059" lon="1.76228">
        <ele>167.80000305176</ele>
        <time>2014-11-28T12:43:52.000Z</time>
      </trkpt>
      <trkpt lat="48.70067" lon="1.76237">
        <ele>168</ele>
        <time>2014-11-28T12:44:00.000Z</time>
      </trkpt>
      <trkpt lat="48.70076" lon="1.76247">
        <ele>168.19999694824</ele>
        <time>2014-11-28T12:44:08.000Z</time>
      </trkpt>
      <trkpt lat="48.70077" lon="1.76249">
        <ele>168.19999694824</ele>
        <time>2014-11-28T12:44:09.000Z</time>
      </trkpt>
      <trkpt lat="48.70088" lon="1.76264">
        <ele>168.39999389648</ele>
        <time>2014-11-28T12:44:17.000Z</time>
      </trkpt>
      <trkpt lat="48.70096" lon="1.76283">
        <ele>168.60000610352</ele>
        <time>2014-11-28T12:44:25.000Z</time>
      </trkpt>
      <trkpt lat="48.70102" lon="1.763">
        <ele>168.80000305176</ele>
        <time>2014-11-28T12:44:33.000Z</time>
      </trkpt>
      <trkpt lat="48.70111" lon="1.76313">
        <ele>169</ele>
        <time>2014-11-28T12:44:41.000Z</time>
      </trkpt>
      <trkpt lat="48.70116" lon="1.76318">
        <ele>169.19999694824</ele>
        <time>2014-11-28T12:44:47.000Z</time>
      </trkpt>
      <trkpt lat="48.70121" lon="1.76325">
        <ele>169.39999389648</ele>
        <time>2014-11-28T12:44:54.000Z</time>
      </trkpt>
      <trkpt lat="48.70122" lon="1.76324">
        <ele>169.39999389648</ele>
        <time>2014-11-28T12:44:55.000Z</time>
      </trkpt>
      <trkpt lat="48.70134" lon="1.76329">
        <ele>169.60000610352</ele>
        <time>2014-11-28T12:45:03.000Z</time>
      </trkpt>
      <trkpt lat="48.70148" lon="1.76328">
        <ele>169.80000305176</ele>
        <time>2014-11-28T12:45:12.000Z</time>
      </trkpt>
      <trkpt lat="48.70158" lon="1.76332">
        <ele>170</ele>
        <time>2014-11-28T12:45:18.000Z</time>
      </trkpt>
      <trkpt lat="48.70162" lon="1.76333">
        <ele>170.19999694824</ele>
        <time>2014-11-28T12:45:21.000Z</time>
      </trkpt>
      <trkpt lat="48.70173" lon="1.76338">
        <ele>170.39999389648</ele>
        <time>2014-11-28T12:45:28.000Z</time>
      </trkpt>
      <trkpt lat="48.70176" lon="1.76341">
        <ele>170.60000610352</ele>
        <time>2014-11-28T12:45:30.000Z</time>
      </trkpt>
      <trkpt lat="48.70183" lon="1.76346">
        <ele>170.80000305176</ele>
        <time>2014-11-28T12:45:35.000Z</time>
      </trkpt>
      <trkpt lat="48.70188" lon="1.76348">
        <ele>171</ele>
        <time>2014-11-28T12:45:41.000Z</time>
      </trkpt>
      <trkpt lat="48.70191" lon="1.7635">
        <ele>171</ele>
        <time>2014-11-28T12:45:43.000Z</time>
      </trkpt>
      <trkpt lat="48.70204" lon="1.76358">
        <ele>171.39999389648</ele>
        <time>2014-11-28T12:45:51.000Z</time>
      </trkpt>
      <trkpt lat="48.70211" lon="1.76361">
        <ele>171.39999389648</ele>
        <time>2014-11-28T12:45:57.000Z</time>
      </trkpt>
      <trkpt lat="48.70221" lon="1.76368">
        <ele>171.60000610352</ele>
        <time>2014-11-28T12:46:04.000Z</time>
      </trkpt>
      <trkpt lat="48.70228" lon="1.76375">
        <ele>172</ele>
        <time>2014-11-28T12:46:10.000Z</time>
      </trkpt>
      <trkpt lat="48.70236" lon="1.76386">
        <ele>172.39999389648</ele>
        <time>2014-11-28T12:46:17.000Z</time>
      </trkpt>
      <trkpt lat="48.70243" lon="1.76397">
        <ele>172.80000305176</ele>
        <time>2014-11-28T12:46:24.000Z</time>
      </trkpt>
      <trkpt lat="48.70245" lon="1.76403">
        <ele>173</ele>
        <time>2014-11-28T12:46:27.000Z</time>
      </trkpt>
      <trkpt lat="48.70247" lon="1.7641">
        <ele>173.19999694824</ele>
        <time>2014-11-28T12:46:31.000Z</time>
      </trkpt>
      <trkpt lat="48.70254" lon="1.76409">
        <ele>173.19999694824</ele>
        <time>2014-11-28T12:46:37.000Z</time>
      </trkpt>
      <trkpt lat="48.70258" lon="1.7641">
        <ele>173.19999694824</ele>
        <time>2014-11-28T12:46:40.000Z</time>
      </trkpt>
      <trkpt lat="48.70268" lon="1.76419">
        <ele>173.60000610352</ele>
        <time>2014-11-28T12:46:49.000Z</time>
      </trkpt>
      <trkpt lat="48.70275" lon="1.76424">
        <ele>173.80000305176</ele>
        <time>2014-11-28T12:46:55.000Z</time>
      </trkpt>
      <trkpt lat="48.70286" lon="1.76427">
        <ele>174.19999694824</ele>
        <time>2014-11-28T12:47:04.000Z</time>
      </trkpt>
      <trkpt lat="48.70298" lon="1.7643">
        <ele>174.60000610352</ele>
        <time>2014-11-28T12:47:12.000Z</time>
      </trkpt>
      <trkpt lat="48.70312" lon="1.7643">
        <ele>175</ele>
        <time>2014-11-28T12:47:22.000Z</time>
      </trkpt>
      <trkpt lat="48.70317" lon="1.76427">
        <ele>175</ele>
        <time>2014-11-28T12:47:28.000Z</time>
      </trkpt>
      <trkpt lat="48.70323" lon="1.76424">
        <ele>175</ele>
        <time>2014-11-28T12:47:33.000Z</time>
      </trkpt>
      <trkpt lat="48.70334" lon="1.76417">
        <ele>175</ele>
        <time>2014-11-28T12:47:42.000Z</time>
      </trkpt>
      <trkpt lat="48.7034" lon="1.76414">
        <ele>175</ele>
        <time>2014-11-28T12:47:48.000Z</time>
      </trkpt>
      <trkpt lat="48.70348" lon="1.76411">
        <ele>175.19999694824</ele>
        <time>2014-11-28T12:47:55.000Z</time>
      </trkpt>
      <trkpt lat="48.70355" lon="1.76409">
        <ele>175.19999694824</ele>
        <time>2014-11-28T12:48:01.000Z</time>
      </trkpt>
      <trkpt lat="48.70365" lon="1.76408">
        <ele>175.60000610352</ele>
        <time>2014-11-28T12:48:09.000Z</time>
      </trkpt>
      <trkpt lat="48.70381" lon="1.76405">
        <ele>176</ele>
        <time>2014-11-28T12:48:20.000Z</time>
      </trkpt>
      <trkpt lat="48.7039" lon="1.76402">
        <ele>176.19999694824</ele>
        <time>2014-11-28T12:48:25.000Z</time>
      </trkpt>
      <trkpt lat="48.70399" lon="1.76403">
        <ele>176.60000610352</ele>
        <time>2014-11-28T12:48:31.000Z</time>
      </trkpt>
      <trkpt lat="48.70408" lon="1.76401">
        <ele>176.80000305176</ele>
        <time>2014-11-28T12:48:39.000Z</time>
      </trkpt>
      <trkpt lat="48.70416" lon="1.76392">
        <ele>176.60000610352</ele>
        <time>2014-11-28T12:48:50.000Z</time>
      </trkpt>
      <trkpt lat="48.70424" lon="1.76388">
        <ele>176.80000305176</ele>
        <time>2014-11-28T12:48:56.000Z</time>
      </trkpt>
      <trkpt lat="48.70429" lon="1.76386">
        <ele>176.80000305176</ele>
        <time>2014-11-28T12:49:01.000Z</time>
      </trkpt>
      <trkpt lat="48.7043" lon="1.76385">
        <ele>176.80000305176</ele>
        <time>2014-11-28T12:49:02.000Z</time>
      </trkpt>
      <trkpt lat="48.70435" lon="1.76382">
        <ele>176.80000305176</ele>
        <time>2014-11-28T12:49:06.000Z</time>
      </trkpt>
      <trkpt lat="48.70438" lon="1.76378">
        <ele>176.60000610352</ele>
        <time>2014-11-28T12:49:10.000Z</time>
      </trkpt>
      <trkpt lat="48.70441" lon="1.76373">
        <ele>176.39999389648</ele>
        <time>2014-11-28T12:49:14.000Z</time>
      </trkpt>
      <trkpt lat="48.70444" lon="1.76361">
        <ele>175.60000610352</ele>
        <time>2014-11-28T12:49:21.000Z</time>
      </trkpt>
      <trkpt lat="48.7045" lon="1.7635">
        <ele>175</ele>
        <time>2014-11-28T12:49:28.000Z</time>
      </trkpt>
      <trkpt lat="48.70451" lon="1.76337">
        <ele>174.19999694824</ele>
        <time>2014-11-28T12:49:35.000Z</time>
      </trkpt>
      <trkpt lat="48.70451" lon="1.76332">
        <ele>174</ele>
        <time>2014-11-28T12:49:37.000Z</time>
      </trkpt>
      <trkpt lat="48.70452" lon="1.76325">
        <ele>173.60000610352</ele>
        <time>2014-11-28T12:49:41.000Z</time>
      </trkpt>
      <trkpt lat="48.70451" lon="1.76309">
        <ele>173.39999389648</ele>
        <time>2014-11-28T12:49:48.000Z</time>
      </trkpt>
      <trkpt lat="48.70449" lon="1.76298">
        <ele>173.60000610352</ele>
        <time>2014-11-28T12:49:53.000Z</time>
      </trkpt>
      <trkpt lat="48.7045" lon="1.76292">
        <ele>173.60000610352</ele>
        <time>2014-11-28T12:49:56.000Z</time>
      </trkpt>
      <trkpt lat="48.70455" lon="1.76273">
        <ele>173.39999389648</ele>
        <time>2014-11-28T12:50:05.000Z</time>
      </trkpt>
      <trkpt lat="48.70455" lon="1.76268">
        <ele>173.39999389648</ele>
        <time>2014-11-28T12:50:07.000Z</time>
      </trkpt>
      <trkpt lat="48.70457" lon="1.76262">
        <ele>173.19999694824</ele>
        <time>2014-11-28T12:50:11.000Z</time>
      </trkpt>
      <trkpt lat="48.70458" lon="1.76259">
        <ele>173.19999694824</ele>
        <time>2014-11-28T12:50:13.000Z</time>
      </trkpt>
      <trkpt lat="48.70465" lon="1.76245">
        <ele>172.39999389648</ele>
        <time>2014-11-28T12:50:20.000Z</time>
      </trkpt>
      <trkpt lat="48.70464" lon="1.76236">
        <ele>172.39999389648</ele>
        <time>2014-11-28T12:50:24.000Z</time>
      </trkpt>
      <trkpt lat="48.70465" lon="1.76226">
        <ele>172.60000610352</ele>
        <time>2014-11-28T12:50:29.000Z</time>
      </trkpt>
      <trkpt lat="48.70465" lon="1.76222">
        <ele>172.80000305176</ele>
        <time>2014-11-28T12:50:31.000Z</time>
      </trkpt>
      <trkpt lat="48.70464" lon="1.76213">
        <ele>173</ele>
        <time>2014-11-28T12:50:36.000Z</time>
      </trkpt>
      <trkpt lat="48.70465" lon="1.76211">
        <ele>173</ele>
        <time>2014-11-28T12:50:38.000Z</time>
      </trkpt>
      <trkpt lat="48.70465" lon="1.76201">
        <ele>173.19999694824</ele>
        <time>2014-11-28T12:50:43.000Z</time>
      </trkpt>
      <trkpt lat="48.70465" lon="1.76189">
        <ele>173.39999389648</ele>
        <time>2014-11-28T12:50:49.000Z</time>
      </trkpt>
      <trkpt lat="48.70464" lon="1.76181">
        <ele>173.80000305176</ele>
        <time>2014-11-28T12:50:53.000Z</time>
      </trkpt>
      <trkpt lat="48.70466" lon="1.7617">
        <ele>174</ele>
        <time>2014-11-28T12:50:59.000Z</time>
      </trkpt>
      <trkpt lat="48.70466" lon="1.76166">
        <ele>174.19999694824</ele>
        <time>2014-11-28T12:51:01.000Z</time>
      </trkpt>
      <trkpt lat="48.70466" lon="1.76145">
        <ele>174.80000305176</ele>
        <time>2014-11-28T12:51:11.000Z</time>
      </trkpt>
      <trkpt lat="48.70467" lon="1.76135">
        <ele>174.80000305176</ele>
        <time>2014-11-28T12:51:16.000Z</time>
      </trkpt>
      <trkpt lat="48.70468" lon="1.7612">
        <ele>175</ele>
        <time>2014-11-28T12:51:23.000Z</time>
      </trkpt>
      <trkpt lat="48.70468" lon="1.76104">
        <ele>175</ele>
        <time>2014-11-28T12:51:29.000Z</time>
      </trkpt>
      <trkpt lat="48.70472" lon="1.76086">
        <ele>175.19999694824</ele>
        <time>2014-11-28T12:51:38.000Z</time>
      </trkpt>
      <trkpt lat="48.70474" lon="1.76078">
        <ele>175.19999694824</ele>
        <time>2014-11-28T12:51:43.000Z</time>
      </trkpt>
      <trkpt lat="48.70478" lon="1.76064">
        <ele>175.39999389648</ele>
        <time>2014-11-28T12:51:51.000Z</time>
      </trkpt>
      <trkpt lat="48.7048" lon="1.76058">
        <ele>175.60000610352</ele>
        <time>2014-11-28T12:51:54.000Z</time>
      </trkpt>
      <trkpt lat="48.70481" lon="1.76046">
        <ele>176</ele>
        <time>2014-11-28T12:52:00.000Z</time>
      </trkpt>
      <trkpt lat="48.70483" lon="1.76032">
        <ele>176.60000610352</ele>
        <time>2014-11-28T12:52:08.000Z</time>
      </trkpt>
      <trkpt lat="48.70484" lon="1.76025">
        <ele>177</ele>
        <time>2014-11-28T12:52:12.000Z</time>
      </trkpt>
      <trkpt lat="48.70486" lon="1.76018">
        <ele>177.39999389648</ele>
        <time>2014-11-28T12:52:16.000Z</time>
      </trkpt>
      <trkpt lat="48.70489" lon="1.76004">
        <ele>178.19999694824</ele>
        <time>2014-11-28T12:52:23.000Z</time>
      </trkpt>
      <trkpt lat="48.70493" lon="1.75991">
        <ele>178.80000305176</ele>
        <time>2014-11-28T12:52:30.000Z</time>
      </trkpt>
      <trkpt lat="48.70498" lon="1.75981">
        <ele>178.80000305176</ele>
        <time>2014-11-28T12:52:37.000Z</time>
      </trkpt>
      <trkpt lat="48.70501" lon="1.75971">
        <ele>178.80000305176</ele>
        <time>2014-11-28T12:52:43.000Z</time>
      </trkpt>
      <trkpt lat="48.70502" lon="1.75967">
        <ele>179</ele>
        <time>2014-11-28T12:52:45.000Z</time>
      </trkpt>
      <trkpt lat="48.70503" lon="1.75963">
        <ele>179.19999694824</ele>
        <time>2014-11-28T12:52:48.000Z</time>
      </trkpt>
      <trkpt lat="48.70506" lon="1.75956">
        <ele>179.60000610352</ele>
        <time>2014-11-28T12:52:52.000Z</time>
      </trkpt>
      <trkpt lat="48.70513" lon="1.75945">
        <ele>180</ele>
        <time>2014-11-28T12:52:59.000Z</time>
      </trkpt>
      <trkpt lat="48.70515" lon="1.75942">
        <ele>180.19999694824</ele>
        <time>2014-11-28T12:53:01.000Z</time>
      </trkpt>
      <trkpt lat="48.7052" lon="1.75931">
        <ele>180.80000305176</ele>
        <time>2014-11-28T12:53:07.000Z</time>
      </trkpt>
      <trkpt lat="48.70522" lon="1.75927">
        <ele>180.80000305176</ele>
        <time>2014-11-28T12:53:10.000Z</time>
      </trkpt>
      <trkpt lat="48.7053" lon="1.75914">
        <ele>181</ele>
        <time>2014-11-28T12:53:18.000Z</time>
      </trkpt>
      <trkpt lat="48.70535" lon="1.75909">
        <ele>180.80000305176</ele>
        <time>2014-11-28T12:53:23.000Z</time>
      </trkpt>
      <trkpt lat="48.70542" lon="1.759">
        <ele>180.60000610352</ele>
        <time>2014-11-28T12:53:31.000Z</time>
      </trkpt>
      <trkpt lat="48.70547" lon="1.7589">
        <ele>180.39999389648</ele>
        <time>2014-11-28T12:53:38.000Z</time>
      </trkpt>
      <trkpt lat="48.70553" lon="1.75878">
        <ele>180.19999694824</ele>
        <time>2014-11-28T12:53:46.000Z</time>
      </trkpt>
      <trkpt lat="48.70558" lon="1.75864">
        <ele>180.19999694824</ele>
        <time>2014-11-28T12:53:55.000Z</time>
      </trkpt>
      <trkpt lat="48.70562" lon="1.7585">
        <ele>179.80000305176</ele>
        <time>2014-11-28T12:54:02.000Z</time>
      </trkpt>
      <trkpt lat="48.70567" lon="1.75843">
        <ele>179.19999694824</ele>
        <time>2014-11-28T12:54:08.000Z</time>
      </trkpt>
      <trkpt lat="48.7057" lon="1.75833">
        <ele>178.80000305176</ele>
        <time>2014-11-28T12:54:13.000Z</time>
      </trkpt>
      <trkpt lat="48.70575" lon="1.75822">
        <ele>178</ele>
        <time>2014-11-28T12:54:19.000Z</time>
      </trkpt>
      <trkpt lat="48.70581" lon="1.75806">
        <ele>177.60000610352</ele>
        <time>2014-11-28T12:54:27.000Z</time>
      </trkpt>
      <trkpt lat="48.70586" lon="1.75793">
        <ele>177.60000610352</ele>
        <time>2014-11-28T12:54:34.000Z</time>
      </trkpt>
      <trkpt lat="48.70592" lon="1.75779">
        <ele>177.80000305176</ele>
        <time>2014-11-28T12:54:43.000Z</time>
      </trkpt>
      <trkpt lat="48.70595" lon="1.75773">
        <ele>177.80000305176</ele>
        <time>2014-11-28T12:54:47.000Z</time>
      </trkpt>
      <trkpt lat="48.70602" lon="1.75765">
        <ele>177.80000305176</ele>
        <time>2014-11-28T12:54:54.000Z</time>
      </trkpt>
      <trkpt lat="48.70604" lon="1.75756">
        <ele>178</ele>
        <time>2014-11-28T12:54:59.000Z</time>
      </trkpt>
      <trkpt lat="48.70613" lon="1.75744">
        <ele>178.39999389648</ele>
        <time>2014-11-28T12:55:08.000Z</time>
      </trkpt>
      <trkpt lat="48.70618" lon="1.75739">
        <ele>178.19999694824</ele>
        <time>2014-11-28T12:55:12.000Z</time>
      </trkpt>
      <trkpt lat="48.70623" lon="1.7573">
        <ele>178.39999389648</ele>
        <time>2014-11-28T12:55:18.000Z</time>
      </trkpt>
      <trkpt lat="48.70627" lon="1.75722">
        <ele>178.60000610352</ele>
        <time>2014-11-28T12:55:24.000Z</time>
      </trkpt>
      <trkpt lat="48.70628" lon="1.75716">
        <ele>179</ele>
        <time>2014-11-28T12:55:31.000Z</time>
      </trkpt>
      <trkpt lat="48.70624" lon="1.75716">
        <ele>179.39999389648</ele>
        <time>2014-11-28T12:56:22.000Z</time>
      </trkpt>
      <trkpt lat="48.70623" lon="1.75715">
        <ele>179.39999389648</ele>
        <time>2014-11-28T12:56:23.000Z</time>
      </trkpt>
      <trkpt lat="48.70623" lon="1.75714">
        <ele>179.60000610352</ele>
        <time>2014-11-28T12:56:25.000Z</time>
      </trkpt>
      <trkpt lat="48.70626" lon="1.75717">
        <ele>179.19999694824</ele>
        <time>2014-11-28T12:56:46.000Z</time>
      </trkpt>
      <trkpt lat="48.70626" lon="1.75718">
        <ele>179.19999694824</ele>
        <time>2014-11-28T12:56:49.000Z</time>
      </trkpt>
      <trkpt lat="48.70628" lon="1.75711">
        <ele>179.39999389648</ele>
        <time>2014-11-28T12:56:55.000Z</time>
      </trkpt>
      <trkpt lat="48.70629" lon="1.75712">
        <ele>179.39999389648</ele>
        <time>2014-11-28T12:56:56.000Z</time>
      </trkpt>
      <trkpt lat="48.7063" lon="1.75712">
        <ele>179.39999389648</ele>
        <time>2014-11-28T12:56:57.000Z</time>
      </trkpt>
      <trkpt lat="48.70641" lon="1.75695">
        <ele>179.80000305176</ele>
        <time>2014-11-28T12:57:13.000Z</time>
      </trkpt>
      <trkpt lat="48.70642" lon="1.75692">
        <ele>180</ele>
        <time>2014-11-28T12:57:14.000Z</time>
      </trkpt>
      <trkpt lat="48.70641" lon="1.75681">
        <ele>180.19999694824</ele>
        <time>2014-11-28T12:57:20.000Z</time>
      </trkpt>
      <trkpt lat="48.70642" lon="1.75669">
        <ele>180.19999694824</ele>
        <time>2014-11-28T12:57:27.000Z</time>
      </trkpt>
      <trkpt lat="48.7064" lon="1.75662">
        <ele>180.60000610352</ele>
        <time>2014-11-28T12:57:31.000Z</time>
      </trkpt>
      <trkpt lat="48.70639" lon="1.75655">
        <ele>180.80000305176</ele>
        <time>2014-11-28T12:57:36.000Z</time>
      </trkpt>
      <trkpt lat="48.70641" lon="1.75642">
        <ele>180.19999694824</ele>
        <time>2014-11-28T12:57:43.000Z</time>
      </trkpt>
      <trkpt lat="48.70643" lon="1.75636">
        <ele>179.80000305176</ele>
        <time>2014-11-28T12:57:46.000Z</time>
      </trkpt>
      <trkpt lat="48.70648" lon="1.75623">
        <ele>179</ele>
        <time>2014-11-28T12:57:54.000Z</time>
      </trkpt>
      <trkpt lat="48.70653" lon="1.75607">
        <ele>178.19999694824</ele>
        <time>2014-11-28T12:58:03.000Z</time>
      </trkpt>
      <trkpt lat="48.7066" lon="1.75592">
        <ele>177.60000610352</ele>
        <time>2014-11-28T12:58:12.000Z</time>
      </trkpt>
      <trkpt lat="48.70667" lon="1.7558">
        <ele>177</ele>
        <time>2014-11-28T12:58:20.000Z</time>
      </trkpt>
      <trkpt lat="48.70675" lon="1.75569">
        <ele>176</ele>
        <time>2014-11-28T12:58:29.000Z</time>
      </trkpt>
      <trkpt lat="48.7068" lon="1.75555">
        <ele>174.60000610352</ele>
        <time>2014-11-28T12:58:37.000Z</time>
      </trkpt>
      <trkpt lat="48.70686" lon="1.75538">
        <ele>174.19999694824</ele>
        <time>2014-11-28T12:58:47.000Z</time>
      </trkpt>
      <trkpt lat="48.70692" lon="1.75526">
        <ele>173.60000610352</ele>
        <time>2014-11-28T12:58:56.000Z</time>
      </trkpt>
      <trkpt lat="48.70696" lon="1.75517">
        <ele>173.19999694824</ele>
        <time>2014-11-28T12:59:04.000Z</time>
      </trkpt>
      <trkpt lat="48.70699" lon="1.75513">
        <ele>173</ele>
        <time>2014-11-28T12:59:10.000Z</time>
      </trkpt>
      <trkpt lat="48.70702" lon="1.75501">
        <ele>172.60000610352</ele>
        <time>2014-11-28T12:59:25.000Z</time>
      </trkpt>
      <trkpt lat="48.70703" lon="1.75501">
        <ele>172.60000610352</ele>
        <time>2014-11-28T12:59:29.000Z</time>
      </trkpt>
      <trkpt lat="48.70703" lon="1.755">
        <ele>172.60000610352</ele>
        <time>2014-11-28T12:59:30.000Z</time>
      </trkpt>
      <trkpt lat="48.70702" lon="1.75491">
        <ele>172.60000610352</ele>
        <time>2014-11-28T13:00:08.000Z</time>
      </trkpt>
      <trkpt lat="48.70701" lon="1.75489">
        <ele>172.60000610352</ele>
        <time>2014-11-28T13:00:10.000Z</time>
      </trkpt>
    </trkseg>
  </trk>
</gpx>